SN3735 / OO-SNM 7700 Squawk Report (7th of August, 2020)

Aircraft A320 Reg No. OO-SNM Age 17 years old
Model A320 Jet engines 2 First flight 22-04-03
Registered 18-04-18 Rollout 04-03 Delivered 23-05-03
Construction No. 2003 Line No. N/A Series 214
ADSHEX 44CDCD Airline name Brussels Airlines Owner Arctic Aviation
Airfield based Brussels-Zaventem~Vlaams-Brabant~OO First tracked N/A
Time Lat Lon Altitude Heading Speed Vertical Rate
2020-08-07 14:20:07 GMT 50.908596 4.498716 0 323 0 0
2020-08-07 14:19:43 GMT 50.908573 4.498749 0 323 0 0
2020-08-07 14:19:29 GMT 50.908489 4.498863 0 337 6 0
2020-08-07 14:19:20 GMT 50.908161 4.499050 0 345 10 0
2020-08-07 14:19:14 GMT 50.907978 4.499124 0 348 10 0
2020-08-07 14:19:08 GMT 50.907711 4.499207 0 351 10 0
2020-08-07 14:19:00 GMT 50.907360 4.499291 0 0 13 0
2020-08-07 14:18:56 GMT 50.907120 4.499291 0 357 11 0
2020-08-07 14:18:49 GMT 50.906792 4.499302 0 2 12 0
2020-08-07 14:18:45 GMT 50.906559 4.499291 0 5 12 0
2020-08-07 14:18:36 GMT 50.906090 4.499217 0 14 12 0
2020-08-07 14:18:26 GMT 50.905663 4.499054 0 11 11 0
2020-08-07 14:18:15 GMT 50.904945 4.498753 0 11 26 0
2020-08-07 14:18:11 GMT 50.904419 4.498586 0 14 40 0
2020-08-07 14:18:03 GMT 50.902565 4.497806 0 14 76 0
2020-08-07 14:17:55 GMT 50.899155 4.496433 0 14 115 0
2020-08-07 14:17:49 GMT 50.895748 4.495029 50 14 135 0
2020-08-07 14:17:35 GMT 50.887070 4.491478 75 13 138 -384
2020-08-07 14:17:25 GMT 50.875729 4.486847 200 14 136 -768
2020-08-07 14:17:16 GMT 50.875729 4.486847 275 14 138 -768
2020-08-07 14:17:11 GMT 50.872101 4.485397 350 14 140 -704
2020-08-07 14:17:07 GMT 50.870361 4.484723 400 14 139 -704
2020-08-07 14:17:04 GMT 50.868050 4.483795 425 13 137 -512
2020-08-07 14:16:56 GMT 50.862946 4.481680 525 14 137 -704
2020-08-07 14:16:52 GMT 50.861206 4.480937 525 14 137 -960
2020-08-07 14:16:45 GMT 50.856537 4.479007 650 14 140 -1024
2020-08-07 14:16:36 GMT 50.850964 4.476776 775 13 144 -576
2020-08-07 14:16:32 GMT 50.848125 4.475632 825 14 144 -768
2020-08-07 14:16:25 GMT 50.843170 4.473663 925 13 144 -832
2020-08-07 14:16:21 GMT 50.841236 4.472885 975 13 143 -896
2020-08-07 14:16:16 GMT 50.837448 4.471436 1,025 14 141 -704
2020-08-07 14:16:12 GMT 50.835480 4.470545 1,050 15 138 -1024
2020-08-07 14:16:05 GMT 50.830109 4.468307 1,125 14 137 -640
2020-08-07 14:15:54 GMT 50.824059 4.465866 1,225 14 139 -640
2020-08-07 14:15:51 GMT 50.822289 4.465103 1,275 13 142 -704
2020-08-07 14:15:45 GMT 50.818314 4.463567 1,375 14 143 -1152
2020-08-07 14:15:42 GMT 50.815842 4.462528 1,375 14 143 -1152
2020-08-07 14:15:34 GMT 50.811127 4.460523 1,525 13 145 -832
2020-08-07 14:15:30 GMT 50.808743 4.459610 1,575 13 146 -640
2020-08-07 14:15:24 GMT 50.804413 4.457932 1,650 15 153 -448
2020-08-07 14:15:20 GMT 50.800922 4.456406 1,700 14 155 -896
2020-08-07 14:15:13 GMT 50.796799 4.454733 1,775 13 157 -576
2020-08-07 14:15:10 GMT 50.794693 4.453843 1,825 14 155 -640
2020-08-07 14:15:04 GMT 50.789749 4.451838 1,850 14 155 -896
2020-08-07 14:15:00 GMT 50.787643 4.451022 1,925 13 158 -896
2020-08-07 14:14:53 GMT 50.782928 4.449166 2,050 13 157 -1024
2020-08-07 14:14:50 GMT 50.780018 4.448013 2,100 14 157 -960
2020-08-07 14:14:45 GMT 50.776901 4.446793 2,175 14 159 -1344
2020-08-07 14:14:42 GMT 50.774139 4.445603 2,225 14 156 -768
2020-08-07 14:14:38 GMT 50.769405 4.443665 2,275 14 155 -704
2020-08-07 14:14:35 GMT 50.769405 4.443665 2,325 14 155 -704
2020-08-07 14:14:28 GMT 50.765450 4.442062 2,725 14 154 -704
2020-08-07 14:14:22 GMT 50.760956 4.440258 2,500 14 156 -960
2020-08-07 14:14:19 GMT 50.758141 4.439087 2,525 14 157 -704
2020-08-07 14:14:14 GMT 50.755234 4.437883 2,600 14 159 -832
2020-08-07 14:14:11 GMT 50.752880 4.436874 2,625 14 159 -1088
2020-08-07 14:14:08 GMT 50.747818 4.434839 2,700 14 157 -704
2020-08-07 14:14:03 GMT 50.747818 4.434839 2,725 14 158 -768
2020-08-07 14:14:00 GMT 50.743057 4.432909 2,800 13 157 -384
2020-08-07 14:13:57 GMT 50.741241 4.432220 2,825 13 158 -1024
2020-08-07 14:13:51 GMT 50.738297 4.431053 2,875 13 161 -1600
2020-08-07 14:13:47 GMT 50.735657 4.430008 2,925 14 163 -896
2020-08-07 14:13:43 GMT 50.733326 4.429092 3,000 14 162 -448
2020-08-07 14:13:40 GMT 50.730625 4.427948 3,050 14 162 -896
2020-08-07 14:13:36 GMT 50.727997 4.426896 3,200 14 163 -960
2020-08-07 14:13:33 GMT 50.725571 4.425857 3,175 13 163 -1024
2020-08-07 14:13:30 GMT 50.723038 4.424896 3,200 13 162 -704
2020-08-07 14:13:27 GMT 50.720898 4.423981 3,225 14 160 -960
2020-08-07 14:13:24 GMT 50.718712 4.423141 3,300 14 162 -960
2020-08-07 14:13:20 GMT 50.713989 4.421255 3,400 14 160 -960
2020-08-07 14:13:13 GMT 50.710648 4.419919 3,450 13 161 -896
2020-08-07 14:13:10 GMT 50.708908 4.419176 3,500 14 161 -896
2020-08-07 14:13:06 GMT 50.706047 4.418030 3,550 14 160 -960
2020-08-07 14:13:02 GMT 50.702499 4.416578 3,625 14 162 -832
2020-08-07 14:12:59 GMT 50.701080 4.416059 3,700 14 162 -960
2020-08-07 14:12:56 GMT 50.697994 4.414825 3,725 14 162 -896
2020-08-07 14:12:52 GMT 50.695805 4.413910 3,750 14 162 -896
2020-08-07 14:12:49 GMT 50.693569 4.412994 3,775 14 162 -704
2020-08-07 14:12:46 GMT 50.691742 4.412273 3,825 14 161 -768
2020-08-07 14:12:42 GMT 50.688126 4.410788 3,875 14 162 -896
2020-08-07 14:12:39 GMT 50.685799 4.409790 3,925 14 162 -896
2020-08-07 14:12:35 GMT 50.683052 4.408722 3,975 13 162 -704
2020-08-07 14:12:32 GMT 50.681671 4.408116 4,025 13 161 -448
2020-08-07 14:12:29 GMT 50.678955 4.407120 4,050 14 160 -576
2020-08-07 14:12:25 GMT 50.676315 4.406037 4,075 13 161 -384
2020-08-07 14:12:22 GMT 50.673412 4.404907 4,100 14 164 -832
2020-08-07 14:12:19 GMT 50.669456 4.403291 4,150 15 165 -448
2020-08-07 14:12:12 GMT 50.666885 4.402265 4,200 15 164 -448
2020-08-07 14:12:09 GMT 50.664104 4.401064 4,250 14 164 -704
2020-08-07 14:12:06 GMT 50.660194 4.399431 4,275 14 162 -640
2020-08-07 14:12:00 GMT 50.658051 4.398540 4,300 15 161 -512
2020-08-07 14:11:57 GMT 50.655071 4.397204 4,325 15 161 -768
2020-08-07 14:11:51 GMT 50.651230 4.395543 4,350 16 161 -704
2020-08-07 14:11:48 GMT 50.649208 4.394531 4,375 16 161 -896
2020-08-07 14:11:45 GMT 50.643620 4.391933 4,475 16 162 -512
2020-08-07 14:11:41 GMT 50.643620 4.391933 4,475 17 162 -640
2020-08-07 14:11:38 GMT 50.641754 4.390990 4,475 18 162 -512
2020-08-07 14:11:31 GMT 50.637222 4.388460 4,525 20 160 -320
2020-08-07 14:11:28 GMT 50.635101 4.387182 4,550 22 157 -384
2020-08-07 14:11:25 GMT 50.633286 4.386075 4,575 23 156 -256
2020-08-07 14:11:22 GMT 50.630817 4.384436 4,600 23 156 -256
2020-08-07 14:11:19 GMT 50.628204 4.382605 4,625 24 156 -640
2020-08-07 14:11:16 GMT 50.626953 4.381615 4,675 27 158 -576
2020-08-07 14:11:12 GMT 50.623627 4.378919 4,700 30 163 -960
2020-08-07 14:11:09 GMT 50.620392 4.375751 4,750 33 164 -1088
2020-08-07 14:11:06 GMT 50.616074 4.370679 4,925 37 155 -960
2020-08-07 14:10:59 GMT 50.616074 4.370679 4,925 38 163 -1408
2020-08-07 14:10:56 GMT 50.614342 4.368550 4,975 38 163 -576
2020-08-07 14:10:49 GMT 50.607777 4.360459 5,075 37 159 -1024
2020-08-07 14:10:46 GMT 50.607777 4.360459 5,300 37 155 -960
2020-08-07 14:10:40 GMT 50.605225 4.357380 5,175 37 154 -896
2020-08-07 14:10:37 GMT 50.602936 4.354669 5,250 36 151 -448
2020-08-07 14:10:31 GMT 50.599487 4.350512 5,275 37 152 -192
2020-08-07 14:10:27 GMT 50.597347 4.347914 5,300 37 154 -448
2020-08-07 14:10:22 GMT 50.594833 4.344870 5,325 37 155 192
2020-08-07 14:10:19 GMT 50.592506 4.341975 5,325 37 158 320
2020-08-07 14:10:16 GMT 50.587921 4.336492 5,350 37 167 -64
2020-08-07 14:10:10 GMT 50.587921 4.336492 5,325 37 167 -64
2020-08-07 14:10:07 GMT 50.585220 4.333239 5,350 37 169 -64
2020-08-07 14:10:04 GMT 50.581009 4.328242 5,350 36 173 -256
2020-08-07 14:10:00 GMT 50.581009 4.328242 5,375 36 177 -320
2020-08-07 14:09:57 GMT 50.577530 4.324204 5,400 36 183 -128
2020-08-07 14:09:50 GMT 50.574005 4.320084 5,400 36 186 -192
2020-08-07 14:09:47 GMT 50.572998 4.318928 5,400 36 186 -256
2020-08-07 14:09:44 GMT 50.567928 4.313099 5,350 36 194 448
2020-08-07 14:09:40 GMT 50.567928 4.313099 5,375 36 195 384
2020-08-07 14:09:37 GMT 50.565319 4.309981 5,350 36 200 64
2020-08-07 14:09:34 GMT 50.563843 4.308231 5,325 36 203 384
2020-08-07 14:09:30 GMT 50.560638 4.304472 5,325 36 208 -512
2020-08-07 14:09:27 GMT 50.558121 4.301509 5,350 37 210 -640
2020-08-07 14:09:24 GMT 50.556057 4.299069 5,400 36 216 -256
2020-08-07 14:09:20 GMT 50.550385 4.292329 5,400 37 214 -448
2020-08-07 14:09:17 GMT 50.547501 4.288932 5,425 37 214 -448
2020-08-07 14:09:14 GMT 50.544342 4.285174 5,450 36 216 -256
2020-08-07 14:09:10 GMT 50.544342 4.285174 5,525 51 240 -384
2020-08-07 14:09:06 GMT 50.541458 4.281777 5,450 36 222 -704
2020-08-07 14:09:03 GMT 50.538940 4.278813 5,475 37 225 -448
2020-08-07 14:08:58 GMT 50.534409 4.273393 5,525 37 230 -384
2020-08-07 14:08:55 GMT 50.531849 4.270341 5,525 38 231 -512
2020-08-07 14:08:49 GMT 50.527706 4.265071 5,575 41 235 -640
2020-08-07 14:08:46 GMT 50.524109 4.260238 5,600 42 236 -576
2020-08-07 14:08:43 GMT 50.522141 4.257202 5,650 46 237 -1216
2020-08-07 14:08:40 GMT 50.519836 4.253119 5,675 51 240 -384
2020-08-07 14:08:35 GMT 50.516487 4.246142 5,700 55 241 -768
2020-08-07 14:08:29 GMT 50.513367 4.238421 5,750 57 248 -512
2020-08-07 14:08:26 GMT 50.511551 4.233819 5,925 57 249 -576
2020-08-07 14:08:23 GMT 50.509369 4.228435 5,775 57 250 -448
2020-08-07 14:08:19 GMT 50.506943 4.222364 5,825 57 254 -384
2020-08-07 14:08:16 GMT 50.504803 4.217191 5,850 57 258 -576
2020-08-07 14:08:12 GMT 50.502800 4.212143 5,875 57 260 -704
2020-08-07 14:08:09 GMT 50.500488 4.206463 5,900 57 269 -1088
2020-08-07 14:08:05 GMT 50.497513 4.199018 6,050 57 271 -1152
2020-08-07 14:07:59 GMT 50.493988 4.190272 6,025 57 267 -960
2020-08-07 14:07:55 GMT 50.491333 4.183695 6,100 57 269 -1088
2020-08-07 14:07:52 GMT 50.489502 4.179214 6,150 57 272 -1152
2020-08-07 14:07:49 GMT 50.487122 4.173359 6,225 57 272 -1088
2020-08-07 14:07:43 GMT 50.482922 4.162928 6,325 57 277 -1088
2020-08-07 14:07:39 GMT 50.480347 4.156663 6,925 61 282 -2176
2020-08-07 14:07:35 GMT 50.477104 4.148304 6,450 59 279 -1920
2020-08-07 14:07:32 GMT 50.475861 4.145026 6,550 60 281 -1984
2020-08-07 14:07:29 GMT 50.473614 4.138654 6,625 62 283 -2304
2020-08-07 14:07:25 GMT 50.471844 4.133235 6,775 65 283 -2496
2020-08-07 14:07:22 GMT 50.469887 4.126331 6,925 70 284 -2496
2020-08-07 14:07:19 GMT 50.468678 4.121135 7,550 77 285 -2496
2020-08-07 14:07:16 GMT 50.467346 4.113802 7,175 77 285 -2496
2020-08-07 14:07:12 GMT 50.466305 4.106734 7,250 78 285 -2496
2020-08-07 14:07:08 GMT 50.465279 4.098940 7,375 78 286 -2304
2020-08-07 14:07:05 GMT 50.464188 4.090745 7,625 78 286 -2560
2020-08-07 14:07:02 GMT 50.463558 4.085801 7,725 78 286 -2496
2020-08-07 14:06:58 GMT 50.462494 4.077518 8,150 79 298 -1280
2020-08-07 14:06:53 GMT 50.461349 4.068483 8,100 79 290 -1984
2020-08-07 14:06:50 GMT 50.460205 4.059077 8,200 79 291 -1792
2020-08-07 14:06:47 GMT 50.459839 4.055762 8,250 79 292 -1728
2020-08-07 14:06:44 GMT 50.459042 4.048759 8,525 79 300 -1280
2020-08-07 14:06:41 GMT 50.458530 4.044231 8,375 79 296 -1408
2020-08-07 14:06:38 GMT 50.456314 4.025188 8,525 79 306 -1280
2020-08-07 14:06:33 GMT 50.455536 4.018322 8,600 79 309 -1280
2020-08-07 14:06:30 GMT 50.454987 4.013479 8,650 79 312 -1216
2020-08-07 14:06:24 GMT 50.453156 3.997867 8,750 79 324 -704
2020-08-07 14:06:21 GMT 50.452152 3.989522 8,750 79 325 -768
2020-08-07 14:06:18 GMT 50.452152 3.989522 9,275 79 366 -1344
2020-08-07 14:06:14 GMT 50.450638 3.976617 8,850 79 340 -768
2020-08-07 14:06:08 GMT 50.449402 3.966209 8,875 79 344 -576
2020-08-07 14:06:04 GMT 50.447571 3.950741 8,950 79 354 -768
2020-08-07 14:06:01 GMT 50.447571 3.950741 8,975 79 357 -1088
2020-08-07 14:05:58 GMT 50.446659 3.943053 9,275 79 369 -1600
2020-08-07 14:05:55 GMT 50.445328 3.932021 9,125 79 368 -1472
2020-08-07 14:05:52 GMT 50.444733 3.926673 9,200 79 372 -2048
2020-08-07 14:05:49 GMT 50.444000 3.920529 9,375 79 373 -1856
2020-08-07 14:05:46 GMT 50.443085 3.912651 9,625 79 376 -2112
2020-08-07 14:05:42 GMT 50.441574 3.899857 9,450 79 377 -2304
2020-08-07 14:05:39 GMT 50.440838 3.893540 9,775 79 379 -2816
2020-08-07 14:05:36 GMT 50.439770 3.884558 9,725 79 379 -2816
2020-08-07 14:05:33 GMT 50.438839 3.876318 9,775 79 379 -3072
2020-08-07 14:05:30 GMT 50.437675 3.866594 10,125 79 378 -3520
2020-08-07 14:05:26 GMT 50.436813 3.858948 10,200 79 378 -3520
2020-08-07 14:05:23 GMT 50.435577 3.848630 10,425 79 379 -3136
2020-08-07 14:05:19 GMT 50.434322 3.837792 10,675 79 379 -2688
2020-08-07 14:05:15 GMT 50.431870 3.816303 11,575 80 400 -3200
2020-08-07 14:05:12 GMT 50.431870 3.816303 10,875 79 381 -2688
2020-08-07 14:05:09 GMT 50.431366 3.811894 11,000 79 382 -2496
2020-08-07 14:05:06 GMT 50.430367 3.803348 11,625 79 383 -2368
2020-08-07 14:05:02 GMT 50.429260 3.793536 12,250 80 396 -3008
2020-08-07 14:04:59 GMT 50.427338 3.776550 11,475 80 389 -2368
2020-08-07 14:04:56 GMT 50.427338 3.776550 11,600 80 391 -2496
2020-08-07 14:04:53 GMT 50.426128 3.765564 11,625 80 391 -2496
2020-08-07 14:04:49 GMT 50.425011 3.755246 11,700 80 392 -2624
2020-08-07 14:04:45 GMT 50.423080 3.737448 12,675 80 397 -2944
2020-08-07 14:04:42 GMT 50.423080 3.737448 12,125 80 395 -2752
2020-08-07 14:04:39 GMT 50.421982 3.727184 12,200 80 396 -2816
2020-08-07 14:04:36 GMT 50.421101 3.718946 12,325 80 397 -3200
2020-08-07 14:04:33 GMT 50.419426 3.703655 12,625 80 397 -3200
2020-08-07 14:04:26 GMT 50.418076 3.690887 12,850 80 397 -2944
2020-08-07 14:04:22 GMT 50.416958 3.680568 12,950 80 398 -2944
2020-08-07 14:04:19 GMT 50.415936 3.671364 13,050 80 398 -3008
2020-08-07 14:04:16 GMT 50.414722 3.660303 13,300 80 399 -3072
2020-08-07 14:04:11 GMT 50.413193 3.646088 13,600 80 400 -3200
2020-08-07 14:04:05 GMT 50.410255 3.618956 13,950 80 400 -3008
2020-08-07 14:04:01 GMT 50.410255 3.618956 14,375 79 404 -2304
2020-08-07 14:03:58 GMT 50.409279 3.610271 14,150 80 401 -2688
2020-08-07 14:03:55 GMT 50.408440 3.602922 14,275 79 404 -2304
2020-08-07 14:03:52 GMT 50.407608 3.595854 14,375 79 405 -2112
2020-08-07 14:03:49 GMT 50.406601 3.587181 14,450 79 406 -2112
2020-08-07 14:03:45 GMT 50.405136 3.574893 18,025 54 402 -3712
2020-08-07 14:03:42 GMT 50.403625 3.563618 16,475 76 409 -3456
2020-08-07 14:03:39 GMT 50.400291 3.543239 15,500 72 407 -4288
2020-08-07 14:03:34 GMT 50.400291 3.543239 15,750 64 405 -3648
2020-08-07 14:03:31 GMT 50.398430 3.534925 15,725 55 405 -2816
2020-08-07 14:03:28 GMT 50.396347 3.527262 15,600 64 405 -3648
2020-08-07 14:03:25 GMT 50.393967 3.519528 16,375 55 405 -2816
2020-08-07 14:03:21 GMT 50.389572 3.507602 15,950 56 406 -2752
2020-08-07 14:03:18 GMT 50.386642 3.500663 16,025 54 406 -2752
2020-08-07 14:03:15 GMT 50.383022 3.492762 16,400 53 408 -2496
2020-08-07 14:03:12 GMT 50.378403 3.482883 16,475 53 410 -2240
2020-08-07 14:03:09 GMT 50.376801 3.479413 16,425 53 409 -2240
2020-08-07 14:03:05 GMT 50.372086 3.469367 16,600 53 412 -2496
2020-08-07 14:03:02 GMT 50.367920 3.460477 16,900 54 402 -3584
2020-08-07 14:02:59 GMT 50.364914 3.453938 16,900 53 413 -3264
2020-08-07 14:02:56 GMT 50.361561 3.446812 17,325 54 411 -3840
2020-08-07 14:02:52 GMT 50.353821 3.430047 17,400 54 411 -4032
2020-08-07 14:02:49 GMT 50.353821 3.430047 17,450 54 410 -4352
2020-08-07 14:02:45 GMT 50.348511 3.418483 17,800 54 407 -4608
2020-08-07 14:02:41 GMT 50.345081 3.411032 19,350 54 402 -2752
2020-08-07 14:02:37 GMT 50.340843 3.401753 18,300 54 402 -3712
2020-08-07 14:02:34 GMT 50.338120 3.395787 18,475 54 402 -3264
2020-08-07 14:02:31 GMT 50.334187 3.387278 18,625 54 402 -2624
2020-08-07 14:02:28 GMT 50.330975 3.380226 18,775 54 403 -2880
2020-08-07 14:02:24 GMT 50.323471 3.363768 19,000 54 403 -2944
2020-08-07 14:02:21 GMT 50.323471 3.363768 19,125 54 403 -2688
2020-08-07 14:02:18 GMT 50.320404 3.357046 19,200 54 403 -2560
2020-08-07 14:02:15 GMT 50.316406 3.348158 19,375 54 404 -2496
2020-08-07 14:02:12 GMT 50.314262 3.343407 19,450 54 405 -2496
2020-08-07 14:02:09 GMT 50.310539 3.335167 19,525 54 405 -2496
2020-08-07 14:02:06 GMT 50.307186 3.327818 19,700 54 406 -2688
2020-08-07 14:02:03 GMT 50.303791 3.320469 19,825 54 406 -2880
2020-08-07 14:02:00 GMT 50.297550 3.307107 20,050 53 406 -2816
2020-08-07 14:01:57 GMT 50.292068 3.295754 21,175 48 408 -2304
2020-08-07 14:01:52 GMT 50.292068 3.295754 20,400 49 408 -2368
2020-08-07 14:01:48 GMT 50.286751 3.285506 20,600 48 408 -2304
2020-08-07 14:01:42 GMT 50.279350 3.273406 20,675 41 411 -1920
2020-08-07 14:01:38 GMT 50.271854 3.263533 21,000 35 411 -2496
2020-08-07 14:01:34 GMT 50.265011 3.256184 21,150 29 410 -2048
2020-08-07 14:01:31 GMT 50.255749 3.247870 21,175 28 411 -1984
2020-08-07 14:01:28 GMT 50.255749 3.247870 21,225 28 411 -1984
2020-08-07 14:01:25 GMT 50.252254 3.244901 21,275 28 411 -1984
2020-08-07 14:01:21 GMT 50.245274 3.238888 21,375 28 411 -1984
2020-08-07 14:01:18 GMT 50.241085 3.235325 21,475 28 411 -1984
2020-08-07 14:01:15 GMT 50.236710 3.231614 21,575 28 411 -1984
2020-08-07 14:01:12 GMT 50.231689 3.227306 21,700 28 412 -2048
2020-08-07 14:01:09 GMT 50.225258 3.221815 21,800 28 413 -2112
2020-08-07 14:01:06 GMT 50.215385 3.213353 21,950 28 415 -2112
2020-08-07 14:01:03 GMT 50.215385 3.213353 22,050 28 415 -2112
2020-08-07 14:01:00 GMT 50.210220 3.208973 22,675 28 415 -2112
2020-08-07 14:00:57 GMT 50.204910 3.204466 22,200 28 417 -2048
2020-08-07 14:00:54 GMT 50.195801 3.196732 22,375 28 418 -2048
2020-08-07 14:00:48 GMT 50.184475 3.187074 22,650 28 419 -2048
2020-08-07 14:00:45 GMT 50.180611 3.183808 22,600 28 418 -2048
2020-08-07 14:00:39 GMT 50.173954 3.178092 22,800 28 419 -2048
2020-08-07 14:00:36 GMT 50.169754 3.174543 23,025 28 419 -2048
2020-08-07 14:00:33 GMT 50.164673 3.170278 23,025 28 419 -2048
2020-08-07 14:00:30 GMT 50.159500 3.165869 23,325 28 421 -1984
2020-08-07 14:00:27 GMT 50.152817 3.160232 23,200 28 420 -1984
2020-08-07 14:00:24 GMT 50.149246 3.157196 23,275 28 421 -1984
2020-08-07 14:00:21 GMT 50.144115 3.152853 23,350 28 421 -1984
2020-08-07 14:00:18 GMT 50.138031 3.147728 23,475 28 421 -1984
2020-08-07 14:00:15 GMT 50.132244 3.142758 23,650 28 423 -1984
2020-08-07 14:00:11 GMT 50.124798 3.136448 23,750 28 426 -2048
2020-08-07 14:00:08 GMT 50.121094 3.133344 23,800 28 426 -2048
2020-08-07 14:00:05 GMT 50.111206 3.124960 23,850 28 476 -1088
2020-08-07 14:00:02 GMT 50.111206 3.124960 23,950 28 429 -2048
2020-08-07 13:59:58 GMT 50.104477 3.119178 24,100 28 430 -2048
2020-08-07 13:59:55 GMT 50.097282 3.113139 24,250 28 432 -2048
2020-08-07 13:59:52 GMT 50.086487 3.103927 24,350 28 436 -1984
2020-08-07 13:59:48 GMT 50.086487 3.103927 24,450 28 434 -1984
2020-08-07 13:59:45 GMT 50.082367 3.100457 24,475 28 436 -1984
2020-08-07 13:59:42 GMT 50.077423 3.096265 24,650 28 438 -1984
2020-08-07 13:59:39 GMT 50.070843 3.090721 24,675 28 438 -1984
2020-08-07 13:59:36 GMT 50.059158 3.080798 24,900 28 441 -1984
2020-08-07 13:59:33 GMT 50.059158 3.080798 24,950 28 443 -1984
2020-08-07 13:59:26 GMT 50.041931 3.066225 25,225 28 447 -1984
2020-08-07 13:59:23 GMT 50.041931 3.066225 25,250 28 448 -1984
2020-08-07 13:59:20 GMT 50.036545 3.061644 25,325 28 449 -1984
2020-08-07 13:59:17 GMT 50.029877 3.056055 25,400 28 462 -1984
2020-08-07 13:59:14 GMT 50.026291 3.053012 25,600 28 476 -1088
2020-08-07 13:59:11 GMT 50.020939 3.048558 25,550 28 452 -1984
2020-08-07 13:59:08 GMT 50.013489 3.042248 25,600 28 452 -2048
2020-08-07 13:59:05 GMT 50.001900 3.032523 26,575 28 459 -2112
2020-08-07 13:59:01 GMT 50.001900 3.032523 25,875 28 455 -2048
2020-08-07 13:58:58 GMT 49.996582 3.028034 26,075 28 456 -2048
2020-08-07 13:58:55 GMT 49.990772 3.023170 26,125 28 457 -2048
2020-08-07 13:58:52 GMT 49.985279 3.018494 26,200 28 457 -2048
2020-08-07 13:58:49 GMT 49.979370 3.013506 26,275 28 458 -2112
2020-08-07 13:58:46 GMT 49.972385 3.007656 26,475 28 458 -2112
2020-08-07 13:58:43 GMT 49.966553 3.002737 26,450 28 459 -2112
2020-08-07 13:58:40 GMT 49.963680 3.000307 26,650 28 459 -2112
2020-08-07 13:58:37 GMT 49.950073 2.988932 27,100 28 460 -2112
2020-08-07 13:58:34 GMT 49.950073 2.988932 26,825 28 460 -2112
2020-08-07 13:58:30 GMT 49.943573 2.983439 27,775 28 461 -1984
2020-08-07 13:58:26 GMT 49.929604 2.971728 28,525 28 460 -2048
2020-08-07 13:58:23 GMT 49.929604 2.971728 27,225 28 461 -2048
2020-08-07 13:58:16 GMT 49.918213 2.962116 28,200 28 460 -2048
2020-08-07 13:58:13 GMT 49.913406 2.958069 27,475 28 460 -1984
2020-08-07 13:58:10 GMT 49.906002 2.951908 27,550 28 460 -1984
2020-08-07 13:58:07 GMT 49.900589 2.947299 27,700 28 460 -1984
2020-08-07 13:58:04 GMT 49.895004 2.942601 27,800 28 459 -1984
2020-08-07 13:58:01 GMT 49.888638 2.937210 28,100 28 461 -1984
2020-08-07 13:57:57 GMT 49.880768 2.930531 28,850 28 460 -1984
2020-08-07 13:57:54 GMT 49.876648 2.927061 28,100 28 460 -1984
2020-08-07 13:57:50 GMT 49.864655 2.916942 28,325 28 463 -1984
2020-08-07 13:57:44 GMT 49.856979 2.910486 28,425 28 464 -1984
2020-08-07 13:57:40 GMT 49.850281 2.904872 28,500 28 468 -1856
2020-08-07 13:57:37 GMT 49.835678 2.892585 28,675 28 466 -1920
2020-08-07 13:57:33 GMT 49.835678 2.892585 28,950 28 478 -1152
2020-08-07 13:57:30 GMT 49.830643 2.888320 28,850 28 469 -1728
2020-08-07 13:57:23 GMT 49.811050 2.871985 29,075 28 471 -1024
2020-08-07 13:57:20 GMT 49.808289 2.869659 29,125 28 472 -1024
2020-08-07 13:57:16 GMT 49.798965 2.861938 29,200 28 473 -1024
2020-08-07 13:57:10 GMT 49.793793 2.857602 29,225 28 474 -1024
2020-08-07 13:57:07 GMT 49.786972 2.851892 29,375 28 476 -1024
2020-08-07 13:57:04 GMT 49.781616 2.847483 29,375 28 477 -1088
2020-08-07 13:57:01 GMT 49.773926 2.841050 29,400 28 478 -1152
2020-08-07 13:56:58 GMT 49.770580 2.838258 29,725 28 480 -1280
2020-08-07 13:56:55 GMT 49.757401 2.827245 29,550 28 480 -1408
2020-08-07 13:56:49 GMT 49.753784 2.824281 29,600 28 481 -1536
2020-08-07 13:56:46 GMT 49.747650 2.819150 29,800 28 483 -1984
2020-08-07 13:56:43 GMT 49.739670 2.812500 29,825 28 485 -1984
2020-08-07 13:56:39 GMT 49.721931 2.797802 30,325 28 485 -2048
2020-08-07 13:56:34 GMT 49.721931 2.797802 30,150 28 487 -2048
2020-08-07 13:56:31 GMT 49.717072 2.793780 30,275 28 487 -2048
2020-08-07 13:56:28 GMT 49.710709 2.788504 30,325 28 488 -2112
2020-08-07 13:56:24 GMT 49.702286 2.781493 30,400 28 488 -2112
2020-08-07 13:56:21 GMT 49.697525 2.777517 30,600 28 488 -2112
2020-08-07 13:56:18 GMT 49.691711 2.772675 30,775 28 488 -2112
2020-08-07 13:56:14 GMT 49.682693 2.765158 30,850 28 488 -2112
2020-08-07 13:56:11 GMT 49.674683 2.758508 30,900 28 488 -2112
2020-08-07 13:56:08 GMT 49.671616 2.755978 31,075 28 487 -2048
2020-08-07 13:56:04 GMT 49.663605 2.749329 31,200 28 487 -2112
2020-08-07 13:56:01 GMT 49.657738 2.744429 31,325 28 485 -2048
2020-08-07 13:55:55 GMT 49.645123 2.733963 31,500 28 484 -2048
2020-08-07 13:55:52 GMT 49.637161 2.727356 31,575 28 484 -1984
2020-08-07 13:55:48 GMT 49.633064 2.723941 31,700 28 482 -2048
2020-08-07 13:55:45 GMT 49.625896 2.718003 31,875 28 482 -2048
2020-08-07 13:55:42 GMT 49.619888 2.712973 31,825 28 482 -2048
2020-08-07 13:55:39 GMT 49.614075 2.708202 31,975 28 482 -2048
2020-08-07 13:55:36 GMT 49.602245 2.698405 32,675 28 482 -2048
2020-08-07 13:55:33 GMT 49.602245 2.698405 32,175 28 482 -2048
2020-08-07 13:55:30 GMT 49.594528 2.692084 32,275 28 482 -2048
2020-08-07 13:55:27 GMT 49.590702 2.688904 32,550 28 482 -2048
2020-08-07 13:55:24 GMT 49.583672 2.683114 32,450 28 482 -2048
2020-08-07 13:55:21 GMT 49.578739 2.679031 32,550 28 482 -2048
2020-08-07 13:55:18 GMT 49.572556 2.673942 32,600 28 482 -2048
2020-08-07 13:55:15 GMT 49.566742 2.669100 32,725 28 482 -2048
2020-08-07 13:55:12 GMT 49.558594 2.662378 32,800 28 482 -1984
2020-08-07 13:55:09 GMT 49.549164 2.654644 33,000 28 481 -1792
2020-08-07 13:55:03 GMT 49.543312 2.649784 33,125 28 481 -1728
2020-08-07 13:55:00 GMT 49.536942 2.644525 33,200 28 480 -1728
2020-08-07 13:54:57 GMT 49.529488 2.638426 33,625 28 480 -1728
2020-08-07 13:54:54 GMT 49.525772 2.635345 33,350 28 480 -1728
2020-08-07 13:54:51 GMT 49.518631 2.629491 35,200 28 478 -1664
2020-08-07 13:54:48 GMT 49.513798 2.625510 33,525 28 480 -1728
2020-08-07 13:54:45 GMT 49.500717 2.614672 33,700 28 480 -1728
2020-08-07 13:54:38 GMT 49.494598 2.609687 33,825 28 480 -1728
2020-08-07 13:54:35 GMT 49.488785 2.604844 34,025 28 480 -1728
2020-08-07 13:54:32 GMT 49.474411 2.592990 34,025 28 480 -1728
2020-08-07 13:54:28 GMT 49.474411 2.592990 34,075 28 479 -1728
2020-08-07 13:54:24 GMT 49.466125 2.586196 34,200 28 479 -1728
2020-08-07 13:54:21 GMT 49.459053 2.580377 34,300 28 479 -1728
2020-08-07 13:54:18 GMT 49.455917 2.577884 34,525 28 479 -1728
2020-08-07 13:54:15 GMT 49.448044 2.571379 34,475 28 478 -1728
2020-08-07 13:54:12 GMT 49.443176 2.567386 34,575 28 479 -1728
2020-08-07 13:54:09 GMT 49.436234 2.561694 34,650 28 478 -1728
2020-08-07 13:54:06 GMT 49.425629 2.553020 34,925 28 478 -1664
2020-08-07 13:54:03 GMT 49.420788 2.549045 35,175 28 477 -1600
2020-08-07 13:53:57 GMT 49.414734 2.544058 35,125 28 477 -1600
2020-08-07 13:53:51 GMT 49.402130 2.533757 35,100 28 477 -1600
2020-08-07 13:53:48 GMT 49.396408 2.528968 35,300 28 476 -1600
2020-08-07 13:53:44 GMT 49.388805 2.522736 35,300 28 477 -1600
2020-08-07 13:53:41 GMT 49.383732 2.518616 35,400 28 477 -1600
2020-08-07 13:53:38 GMT 49.377686 2.513686 35,450 28 477 -1600
2020-08-07 13:53:35 GMT 49.370316 2.507629 35,650 27 478 0
2020-08-07 13:53:32 GMT 49.365204 2.503437 35,650 28 478 -1536
2020-08-07 13:53:29 GMT 49.359100 2.498404 35,675 28 478 -1536
2020-08-07 13:53:26 GMT 49.354935 2.495023 35,825 28 480 -1344
2020-08-07 13:53:22 GMT 49.345280 2.487102 35,825 28 480 -960
2020-08-07 13:53:16 GMT 49.329712 2.474389 36,000 28 480 0
2020-08-07 13:53:11 GMT 49.324890 2.470406 36,000 28 480 -64
2020-08-07 13:53:08 GMT 49.317947 2.464740 36,000 28 480 0
2020-08-07 13:53:04 GMT 49.311584 2.459529 36,000 28 480 0
2020-08-07 13:53:01 GMT 49.299099 2.449373 36,000 28 480 64
2020-08-07 13:52:55 GMT 49.294327 2.445444 36,000 28 480 0
2020-08-07 13:52:52 GMT 49.288147 2.440373 36,000 28 480 0
2020-08-07 13:52:49 GMT 49.281326 2.434880 36,000 28 480 0
2020-08-07 13:52:46 GMT 49.274780 2.429528 36,000 28 480 0
2020-08-07 13:52:43 GMT 49.269836 2.425514 36,000 28 480 0
2020-08-07 13:52:40 GMT 49.263702 2.420513 36,000 28 480 0
2020-08-07 13:52:37 GMT 49.251709 2.410795 35,975 28 480 0
2020-08-07 13:52:31 GMT 49.245621 2.405795 36,000 28 480 0
2020-08-07 13:52:28 GMT 49.238800 2.400231 36,000 28 480 0
2020-08-07 13:52:25 GMT 49.225315 2.389310 36,000 28 480 0
2020-08-07 13:52:21 GMT 49.225315 2.389310 36,000 28 480 0
2020-08-07 13:52:17 GMT 49.219074 2.384178 36,000 28 479 0
2020-08-07 13:52:11 GMT 49.204834 2.372624 36,000 28 479 0
2020-08-07 13:52:08 GMT 49.200851 2.369385 36,000 28 479 0
2020-08-07 13:52:05 GMT 49.187393 2.358398 36,000 28 479 0
2020-08-07 13:51:58 GMT 49.181213 2.353398 36,000 28 479 0
2020-08-07 13:51:55 GMT 49.175583 2.348821 36,000 28 479 0
2020-08-07 13:51:52 GMT 49.168568 2.343124 36,000 28 479 0
2020-08-07 13:51:49 GMT 49.163589 2.339102 36,000 28 479 0
2020-08-07 13:51:46 GMT 49.146103 2.324876 36,000 27 478 0
2020-08-07 13:51:42 GMT 49.146103 2.324876 36,000 27 478 0
2020-08-07 13:51:39 GMT 49.143333 2.322669 36,000 27 478 0
2020-08-07 13:51:36 GMT 49.136631 2.317248 36,000 27 478 0
2020-08-07 13:51:32 GMT 49.130447 2.312200 36,000 27 477 0
2020-08-07 13:51:29 GMT 49.124130 2.307129 36,000 27 477 0
2020-08-07 13:51:26 GMT 49.115402 2.300046 36,000 27 477 0
2020-08-07 13:51:23 GMT 49.111588 2.296938 36,000 27 477 0
2020-08-07 13:51:20 GMT 49.105721 2.292167 36,000 27 477 0
2020-08-07 13:51:17 GMT 49.099823 2.287410 36,000 28 478 0
2020-08-07 13:51:14 GMT 49.095703 2.284100 36,000 28 478 0
2020-08-07 13:51:11 GMT 49.089241 2.278868 36,000 28 478 0
2020-08-07 13:51:08 GMT 49.083572 2.274240 36,000 27 477 0
2020-08-07 13:51:05 GMT 49.077393 2.269240 36,000 27 477 0
2020-08-07 13:51:02 GMT 49.070339 2.263545 36,000 27 477 0
2020-08-07 13:50:56 GMT 49.060364 2.255507 36,000 27 477 0
2020-08-07 13:50:53 GMT 49.051987 2.248746 36,000 27 477 0
2020-08-07 13:50:50 GMT 49.048920 2.246211 36,000 27 477 0
2020-08-07 13:50:47 GMT 49.043201 2.241645 36,000 27 478 0
2020-08-07 13:50:44 GMT 49.034870 2.234923 36,000 27 478 -64
2020-08-07 13:50:41 GMT 49.031158 2.231915 36,000 27 478 0
2020-08-07 13:50:38 GMT 49.021786 2.224370 36,000 27 478 0
2020-08-07 13:50:35 GMT 49.018799 2.221985 36,000 27 478 0
2020-08-07 13:50:32 GMT 49.006027 2.211773 36,000 27 478 -64
2020-08-07 13:50:29 GMT 49.006027 2.211773 36,000 27 478 0
2020-08-07 13:50:23 GMT 48.986828 2.196326 36,000 27 478 0
2020-08-07 13:50:19 GMT 48.986828 2.196326 36,000 27 478 -64
2020-08-07 13:50:16 GMT 48.978653 2.189801 36,000 27 478 0
2020-08-07 13:50:13 GMT 48.974396 2.186424 36,000 27 478 0
2020-08-07 13:50:09 GMT 48.968159 2.181364 36,000 27 478 0
2020-08-07 13:50:06 GMT 48.959427 2.174377 36,000 27 478 0
2020-08-07 13:50:03 GMT 48.947815 2.165029 36,000 27 478 0
2020-08-07 13:49:59 GMT 48.944000 2.161983 36,000 27 478 -64
2020-08-07 13:49:53 GMT 48.932281 2.152616 36,000 27 478 0
2020-08-07 13:49:47 GMT 48.918823 2.141841 36,000 27 478 64
2020-08-07 13:49:44 GMT 48.918823 2.141841 36,000 27 478 0
2020-08-07 13:49:41 GMT 48.914810 2.138576 36,000 27 479 0
2020-08-07 13:49:38 GMT 48.908852 2.133877 36,000 27 478 0
2020-08-07 13:49:35 GMT 48.901917 2.128312 36,000 27 478 0
2020-08-07 13:49:32 GMT 48.895432 2.123108 36,000 27 478 0
2020-08-07 13:49:29 GMT 48.885761 2.115446 36,000 27 478 0
2020-08-07 13:49:23 GMT 48.877533 2.108812 36,000 27 478 0
2020-08-07 13:49:20 GMT 48.873230 2.105361 36,000 27 478 64
2020-08-07 13:49:17 GMT 48.866455 2.100008 36,000 27 478 0
2020-08-07 13:49:14 GMT 48.861835 2.096293 36,000 27 478 0
2020-08-07 13:49:11 GMT 48.854782 2.090712 36,000 27 478 0
2020-08-07 13:49:08 GMT 48.848892 2.085957 36,000 27 478 0
2020-08-07 13:49:05 GMT 48.842056 2.080501 36,000 27 478 0
2020-08-07 13:49:02 GMT 48.834740 2.074609 36,000 27 478 0
2020-08-07 13:48:58 GMT 48.829605 2.070500 36,000 27 478 0
2020-08-07 13:48:55 GMT 48.823563 2.065711 36,000 27 478 0
2020-08-07 13:48:52 GMT 48.817566 2.060922 36,000 27 478 0
2020-08-07 13:48:49 GMT 48.810486 2.055238 36,000 27 478 0
2020-08-07 13:48:46 GMT 48.799850 2.046767 36,000 27 479 0
2020-08-07 13:48:43 GMT 48.799850 2.046767 36,000 27 478 -64
2020-08-07 13:48:40 GMT 48.795219 2.043023 36,000 27 478 0
2020-08-07 13:48:37 GMT 48.787903 2.037189 36,000 27 478 0
2020-08-07 13:48:34 GMT 48.783020 2.033338 36,000 27 478 0
2020-08-07 13:48:31 GMT 48.774593 2.026544 36,000 27 477 0
2020-08-07 13:48:28 GMT 48.770691 2.023456 36,000 27 478 0
2020-08-07 13:48:25 GMT 48.765610 2.019442 36,000 27 477 0
2020-08-07 13:48:22 GMT 48.759697 2.014762 36,000 27 477 0
2020-08-07 13:48:19 GMT 48.753273 2.009631 36,000 27 477 0
2020-08-07 13:48:16 GMT 48.747711 2.005146 36,000 27 478 0
2020-08-07 13:48:13 GMT 48.740704 1.999584 36,000 27 478 0
2020-08-07 13:48:10 GMT 48.735771 1.995681 36,000 27 477 0
2020-08-07 13:48:07 GMT 48.729538 1.990709 36,000 27 477 0
2020-08-07 13:48:04 GMT 48.723312 1.985779 36,000 27 477 0
2020-08-07 13:48:01 GMT 48.718033 1.981587 36,000 27 477 0
2020-08-07 13:47:58 GMT 48.712074 1.976889 36,000 27 477 0
2020-08-07 13:47:55 GMT 48.707062 1.972891 36,000 27 478 0
2020-08-07 13:47:52 GMT 48.700562 1.967750 36,000 27 478 0
2020-08-07 13:47:48 GMT 48.692871 1.961693 36,000 27 478 -64
2020-08-07 13:47:45 GMT 48.687263 1.957229 36,000 27 478 0
2020-08-07 13:47:42 GMT 48.681164 1.952386 36,000 27 478 0
2020-08-07 13:47:39 GMT 48.676323 1.948555 36,000 27 478 0
2020-08-07 13:47:36 GMT 48.668640 1.942412 36,000 27 478 0
2020-08-07 13:47:32 GMT 48.653885 1.930775 36,000 27 478 -64
2020-08-07 13:47:29 GMT 48.653885 1.930775 36,000 27 478 0
2020-08-07 13:47:26 GMT 48.649750 1.927467 36,000 27 478 0
2020-08-07 13:47:23 GMT 48.644203 1.923113 36,000 27 479 0
2020-08-07 13:47:20 GMT 48.637436 1.917748 36,000 27 478 0
2020-08-07 13:47:17 GMT 48.631348 1.912889 36,000 27 478 0
2020-08-07 13:47:14 GMT 48.624229 1.907284 36,000 27 478 0
2020-08-07 13:47:11 GMT 48.620319 1.904176 36,000 27 479 0
2020-08-07 13:47:08 GMT 48.613571 1.898828 36,000 27 479 0
2020-08-07 13:47:05 GMT 48.607544 1.894085 36,000 27 480 0
2020-08-07 13:47:02 GMT 48.603516 1.890846 36,000 27 479 0
2020-08-07 13:46:59 GMT 48.596535 1.885312 36,000 27 479 0
2020-08-07 13:46:55 GMT 48.588898 1.879240 36,000 27 479 0
2020-08-07 13:46:52 GMT 48.584335 1.875626 36,000 27 479 0
2020-08-07 13:46:49 GMT 48.577240 1.870000 36,000 27 479 0
2020-08-07 13:46:45 GMT 48.562134 1.858028 36,000 27 479 0
2020-08-07 13:46:38 GMT 48.557053 1.854013 36,000 27 479 0
2020-08-07 13:46:35 GMT 48.550354 1.848739 36,000 27 479 0
2020-08-07 13:46:32 GMT 48.542679 1.842675 36,000 27 479 0
2020-08-07 13:46:28 GMT 48.529545 1.832259 36,000 27 479 0
2020-08-07 13:46:25 GMT 48.529545 1.832259 36,000 27 480 0
2020-08-07 13:46:21 GMT 48.523041 1.827111 36,000 27 479 0
2020-08-07 13:46:18 GMT 48.516186 1.821707 36,000 27 479 0
2020-08-07 13:46:15 GMT 48.509155 1.816214 36,000 27 479 0
2020-08-07 13:46:11 GMT 48.503334 1.811588 36,000 27 479 -64
2020-08-07 13:46:07 GMT 48.495003 1.805083 36,000 27 479 -64
2020-08-07 13:46:04 GMT 48.482944 1.795614 36,000 27 479 -64
2020-08-07 13:46:01 GMT 48.482944 1.795614 36,000 27 479 -64
2020-08-07 13:45:55 GMT 48.471542 1.786616 36,000 27 479 -64
2020-08-07 13:45:52 GMT 48.465225 1.781687 36,000 27 480 0
2020-08-07 13:45:48 GMT 48.457352 1.775489 36,000 27 479 0
2020-08-07 13:45:45 GMT 48.443024 1.764221 36,000 27 479 0
2020-08-07 13:45:41 GMT 48.443024 1.764221 36,000 27 480 0
2020-08-07 13:45:38 GMT 48.429131 1.753331 36,000 27 480 0
2020-08-07 13:45:34 GMT 48.429131 1.753331 36,000 27 480 0
2020-08-07 13:45:30 GMT 48.415585 1.742634 36,000 27 480 0
2020-08-07 13:45:27 GMT 48.415585 1.742634 36,000 27 480 0
2020-08-07 13:45:24 GMT 48.408417 1.737069 36,000 27 480 0
2020-08-07 13:45:21 GMT 48.401779 1.731826 36,000 27 480 0
2020-08-07 13:45:15 GMT 48.392029 1.724203 36,000 27 480 0
2020-08-07 13:45:12 GMT 48.385208 1.718867 36,000 27 480 0
2020-08-07 13:45:09 GMT 48.380157 1.714879 36,000 27 480 0
2020-08-07 13:45:06 GMT 48.374012 1.710036 36,000 27 480 0
2020-08-07 13:45:03 GMT 48.369682 1.706639 36,000 27 480 0
2020-08-07 13:45:00 GMT 48.362888 1.701291 36,000 27 480 0
2020-08-07 13:44:57 GMT 48.357021 1.696737 36,000 27 480 0
2020-08-07 13:44:54 GMT 48.351109 1.692111 36,000 27 480 0
2020-08-07 13:44:50 GMT 48.343102 1.685823 36,000 27 481 0
2020-08-07 13:44:44 GMT 48.330872 1.676260 36,000 27 481 0
2020-08-07 13:44:41 GMT 48.325737 1.672235 36,000 27 481 0
2020-08-07 13:44:38 GMT 48.319641 1.667464 36,000 27 481 0
2020-08-07 13:44:33 GMT 48.310654 1.660453 36,000 27 481 0
2020-08-07 13:44:30 GMT 48.303394 1.654816 36,000 27 481 0
2020-08-07 13:44:27 GMT 48.297684 1.650344 36,000 27 480 0
2020-08-07 13:44:24 GMT 48.289948 1.644287 36,000 27 481 0
2020-08-07 13:44:20 GMT 48.283703 1.639420 36,000 27 481 0
2020-08-07 13:44:17 GMT 48.277725 1.634780 36,000 27 480 0
2020-08-07 13:44:14 GMT 48.272064 1.630386 36,000 27 480 0
2020-08-07 13:44:11 GMT 48.264450 1.624427 36,000 27 480 0
2020-08-07 13:44:08 GMT 48.260056 1.620976 36,000 27 480 0
2020-08-07 13:44:03 GMT 48.250462 1.613545 36,000 27 480 0
2020-08-07 13:44:00 GMT 48.242111 1.607103 36,000 27 480 0
2020-08-07 13:43:57 GMT 48.238953 1.604638 36,000 27 480 0
2020-08-07 13:43:54 GMT 48.232086 1.599285 36,000 27 480 0
2020-08-07 13:43:51 GMT 48.225883 1.594463 36,000 27 480 0
2020-08-07 13:43:48 GMT 48.214340 1.585573 36,000 27 480 0
2020-08-07 13:43:45 GMT 48.214340 1.585573 36,000 27 480 0
2020-08-07 13:43:42 GMT 48.209152 1.581538 36,000 27 480 0
2020-08-07 13:43:39 GMT 48.203156 1.576820 36,000 27 480 0
2020-08-07 13:43:35 GMT 48.194687 1.570270 36,000 27 480 0
2020-08-07 13:43:32 GMT 48.188782 1.565693 36,000 27 481 0
2020-08-07 13:43:28 GMT 48.181194 1.559769 36,000 27 480 -64
2020-08-07 13:43:24 GMT 48.174911 1.554918 36,000 27 480 0
2020-08-07 13:43:21 GMT 48.166485 1.548422 36,000 27 480 0
2020-08-07 13:43:18 GMT 48.162388 1.545242 36,000 27 480 0
2020-08-07 13:43:15 GMT 48.153263 1.538227 36,000 27 480 0
2020-08-07 13:43:12 GMT 48.148499 1.534515 36,000 27 480 -64
2020-08-07 13:43:08 GMT 48.141670 1.529212 36,000 27 480 -64
2020-08-07 13:43:04 GMT 48.129913 1.520164 36,000 27 480 -64
2020-08-07 13:43:00 GMT 48.126846 1.517761 36,000 27 480 -64
2020-08-07 13:42:57 GMT 48.121700 1.513789 36,000 27 480 -64
2020-08-07 13:42:54 GMT 48.114670 1.508423 36,000 27 480 -64
2020-08-07 13:42:50 GMT 48.104801 1.500761 36,000 27 480 -64
2020-08-07 13:42:47 GMT 48.100800 1.497732 36,000 27 480 -64
2020-08-07 13:42:44 GMT 48.092743 1.491464 36,000 27 480 0
2020-08-07 13:42:41 GMT 48.088577 1.488304 36,025 27 481 0
2020-08-07 13:42:38 GMT 48.084038 1.484774 36,000 27 480 0
2020-08-07 13:42:35 GMT 48.076405 1.478858 36,000 27 480 0
2020-08-07 13:42:31 GMT 48.069077 1.473198 36,000 27 480 0
2020-08-07 13:42:28 GMT 48.064209 1.469492 36,025 27 480 -64
2020-08-07 13:42:24 GMT 48.054943 1.462308 36,000 27 481 0
2020-08-07 13:42:21 GMT 48.048889 1.457611 36,000 27 481 0
2020-08-07 13:42:18 GMT 48.044174 1.453972 36,000 27 481 0
2020-08-07 13:42:13 GMT 48.033344 1.445618 36,025 27 481 0
2020-08-07 13:42:10 GMT 48.025990 1.439984 36,000 27 481 0
2020-08-07 13:42:07 GMT 48.022247 1.437080 36,000 27 481 0
2020-08-07 13:42:04 GMT 48.012726 1.429733 36,000 27 481 0
2020-08-07 13:42:01 GMT 48.002655 1.421974 36,000 27 481 0
2020-08-07 13:41:54 GMT 47.996796 1.417511 36,000 27 481 0
2020-08-07 13:41:51 GMT 47.988419 1.411057 36,000 27 481 0
2020-08-07 13:41:48 GMT 47.982368 1.406391 36,000 27 481 0
2020-08-07 13:41:44 GMT 47.975201 1.400898 36,000 27 481 0
2020-08-07 13:41:41 GMT 47.963654 1.391954 36,000 27 481 0
2020-08-07 13:41:38 GMT 47.963654 1.391954 36,000 27 481 0
2020-08-07 13:41:35 GMT 47.955414 1.385615 36,000 27 482 0
2020-08-07 13:41:32 GMT 47.941727 1.375145 36,000 27 482 0
2020-08-07 13:41:28 GMT 47.941727 1.375145 36,000 27 482 -64
2020-08-07 13:41:23 GMT 47.933945 1.369102 36,025 27 481 0
2020-08-07 13:41:20 GMT 47.927307 1.364021 36,000 27 481 0
2020-08-07 13:41:17 GMT 47.922089 1.359970 36,000 27 482 0
2020-08-07 13:41:13 GMT 47.914398 1.354065 36,000 27 482 0
2020-08-07 13:41:10 GMT 47.907280 1.348642 36,000 27 482 0
2020-08-07 13:41:06 GMT 47.898342 1.341741 36,000 27 482 0
2020-08-07 13:41:03 GMT 47.894524 1.338853 36,000 27 482 0
2020-08-07 13:41:00 GMT 47.886471 1.332656 36,000 27 482 0
2020-08-07 13:40:56 GMT 47.880791 1.328289 36,025 27 482 -64
2020-08-07 13:40:53 GMT 47.872742 1.322136 36,025 27 482 0
2020-08-07 13:40:50 GMT 47.868641 1.318993 36,025 27 482 0
2020-08-07 13:40:46 GMT 47.861389 1.313484 36,000 27 482 0
2020-08-07 13:40:43 GMT 47.853699 1.307579 36,000 27 482 0
2020-08-07 13:40:39 GMT 47.846603 1.302155 36,000 27 483 0
2020-08-07 13:40:35 GMT 47.839600 1.296799 36,000 27 483 0
2020-08-07 13:40:32 GMT 47.833309 1.291950 36,000 27 483 0
2020-08-07 13:40:28 GMT 47.824043 1.284978 36,000 27 483 0
2020-08-07 13:40:25 GMT 47.813690 1.277092 36,000 27 483 0
2020-08-07 13:40:22 GMT 47.813690 1.277092 36,000 27 483 0
2020-08-07 13:40:19 GMT 47.806683 1.271738 36,000 27 483 0
2020-08-07 13:40:16 GMT 47.799511 1.266245 36,000 27 483 0
2020-08-07 13:40:13 GMT 47.795425 1.263153 36,000 27 483 0
2020-08-07 13:40:10 GMT 47.784714 1.254982 36,000 27 483 64
2020-08-07 13:40:04 GMT 47.777847 1.249832 36,000 27 483 64
2020-08-07 13:40:00 GMT 47.769531 1.243497 36,000 27 483 0
2020-08-07 13:39:56 GMT 47.761990 1.237793 36,000 27 483 0
2020-08-07 13:39:53 GMT 47.756172 1.233356 36,000 27 483 0
2020-08-07 13:39:50 GMT 47.748817 1.227793 36,000 27 483 0
2020-08-07 13:39:45 GMT 47.739258 1.220512 36,000 27 483 0
2020-08-07 13:39:42 GMT 47.727539 1.211655 36,000 27 483 0
2020-08-07 13:39:39 GMT 47.727539 1.211655 36,000 27 483 0
2020-08-07 13:39:36 GMT 47.720371 1.206172 36,000 27 483 -64
2020-08-07 13:39:33 GMT 47.717331 1.203827 36,000 26 482 64
2020-08-07 13:39:29 GMT 47.708782 1.197298 36,000 27 483 0
2020-08-07 13:39:26 GMT 47.696640 1.188034 36,000 27 482 0
2020-08-07 13:39:23 GMT 47.696640 1.188034 36,000 27 482 0
2020-08-07 13:39:20 GMT 47.687988 1.181442 36,000 27 482 0
2020-08-07 13:39:17 GMT 47.678146 1.173889 36,000 27 482 64
2020-08-07 13:39:11 GMT 47.672333 1.169495 36,000 27 483 0
2020-08-07 13:39:08 GMT 47.665161 1.163987 36,000 27 483 0
2020-08-07 13:39:05 GMT 47.660248 1.160294 36,000 27 483 0
2020-08-07 13:39:01 GMT 47.652283 1.154251 36,000 27 483 0
2020-08-07 13:38:58 GMT 47.646194 1.149582 36,000 27 483 0
2020-08-07 13:38:54 GMT 47.632553 1.139282 35,975 26 482 0
2020-08-07 13:38:51 GMT 47.632553 1.139282 36,000 27 483 -64
2020-08-07 13:38:46 GMT 47.621887 1.131180 36,000 27 483 -64
2020-08-07 13:38:42 GMT 47.614517 1.125618 36,000 27 483 0
2020-08-07 13:38:39 GMT 47.608200 1.120811 36,000 27 483 0
2020-08-07 13:38:35 GMT 47.593369 1.109550 36,000 27 483 0
2020-08-07 13:38:29 GMT 47.588333 1.105774 36,000 27 483 0
2020-08-07 13:38:26 GMT 47.582348 1.101239 36,000 27 483 0
2020-08-07 13:38:21 GMT 47.572403 1.093758 36,000 27 483 0
2020-08-07 13:38:18 GMT 47.566864 1.089569 36,000 27 483 0
2020-08-07 13:38:15 GMT 47.561691 1.085655 36,000 27 483 0
2020-08-07 13:38:12 GMT 47.555649 1.081055 36,000 27 483 0
2020-08-07 13:38:09 GMT 47.548645 1.075768 36,000 27 483 0
2020-08-07 13:38:06 GMT 47.543335 1.071716 36,000 27 483 0
2020-08-07 13:38:03 GMT 47.535374 1.065744 36,000 27 483 0
2020-08-07 13:37:59 GMT 47.528595 1.060661 35,975 26 482 0
2020-08-07 13:37:55 GMT 47.521545 1.055305 35,975 26 482 0
2020-08-07 13:37:52 GMT 47.515411 1.050705 35,975 26 482 64
2020-08-07 13:37:49 GMT 47.508701 1.045603 35,975 26 482 64
2020-08-07 13:37:46 GMT 47.502880 1.041236 35,975 26 482 64
2020-08-07 13:37:43 GMT 47.496552 1.036491 35,975 26 482 64
2020-08-07 13:37:40 GMT 47.490692 1.032097 35,975 26 482 64
2020-08-07 13:37:37 GMT 47.485199 1.027977 35,975 26 482 0
2020-08-07 13:37:34 GMT 47.477417 1.022151 35,975 26 482 0
2020-08-07 13:37:31 GMT 47.473251 1.019051 35,975 26 481 -64
2020-08-07 13:37:28 GMT 47.467346 1.014587 35,975 26 482 64
2020-08-07 13:37:25 GMT 47.461033 1.009897 35,975 26 481 0
2020-08-07 13:37:22 GMT 47.454712 1.005180 35,975 26 482 0
2020-08-07 13:37:19 GMT 47.449345 1.001164 35,975 26 481 0
2020-08-07 13:37:16 GMT 47.444275 0.997353 35,975 26 481 0
2020-08-07 13:37:13 GMT 47.437103 0.992009 35,975 26 481 0
2020-08-07 13:37:09 GMT 47.430725 0.987291 35,975 26 481 0
2020-08-07 13:37:06 GMT 47.422905 0.981445 35,975 26 481 -64
2020-08-07 13:37:03 GMT 47.418091 0.977852 35,975 26 481 -64
2020-08-07 13:37:00 GMT 47.410767 0.972427 35,975 26 481 0
2020-08-07 13:36:55 GMT 47.402283 0.966093 36,000 27 483 -64
2020-08-07 13:36:52 GMT 47.396988 0.962196 35,975 26 481 0
2020-08-07 13:36:49 GMT 47.389984 0.956978 35,975 26 481 0
2020-08-07 13:36:46 GMT 47.384171 0.952652 35,975 26 481 0
2020-08-07 13:36:43 GMT 47.376114 0.946678 35,975 26 482 0
2020-08-07 13:36:40 GMT 47.372269 0.943794 35,975 27 483 -64
2020-08-07 13:36:33 GMT 47.356148 0.931725 35,975 27 481 -64
2020-08-07 13:36:29 GMT 47.342323 0.921302 35,975 27 482 -64
2020-08-07 13:36:25 GMT 47.342323 0.921302 35,975 27 482 -64
2020-08-07 13:36:22 GMT 47.336178 0.916654 35,975 27 483 -64
2020-08-07 13:36:19 GMT 47.330128 0.912006 36,000 27 482 -128
2020-08-07 13:36:15 GMT 47.321140 0.905175 36,000 27 483 -64
2020-08-07 13:36:12 GMT 47.316395 0.901513 36,000 27 482 -64
2020-08-07 13:36:09 GMT 47.311737 0.897851 36,000 27 483 -64
2020-08-07 13:36:06 GMT 47.303452 0.891372 36,000 28 483 -64
2020-08-07 13:36:02 GMT 47.296509 0.885910 36,000 28 483 -64
2020-08-07 13:35:58 GMT 47.289413 0.880211 36,000 28 483 -64
2020-08-07 13:35:55 GMT 47.281387 0.873695 36,025 29 484 -64
2020-08-07 13:35:52 GMT 47.274822 0.868342 36,025 29 484 -64
2020-08-07 13:35:49 GMT 47.270096 0.864418 36,025 30 485 -64
2020-08-07 13:35:44 GMT 47.260986 0.856796 36,025 29 484 -64
2020-08-07 13:35:41 GMT 47.255447 0.852127 36,025 30 484 -64
2020-08-07 13:35:37 GMT 47.246933 0.844780 36,025 30 486 0
2020-08-07 13:35:34 GMT 47.240791 0.839468 36,025 30 485 0
2020-08-07 13:35:31 GMT 47.234180 0.833764 36,025 30 486 0
2020-08-07 13:35:27 GMT 47.225986 0.826651 36,025 30 486 0
2020-08-07 13:35:23 GMT 47.221024 0.822258 36,025 30 486 0
2020-08-07 13:35:20 GMT 47.210129 0.812851 36,025 30 486 0
2020-08-07 13:35:17 GMT 47.210129 0.812851 36,025 30 486 0
2020-08-07 13:35:14 GMT 47.202991 0.806720 36,025 29 486 64
2020-08-07 13:35:11 GMT 47.197731 0.802284 36,025 29 487 64
2020-08-07 13:35:08 GMT 47.183441 0.790804 36,025 28 486 0
2020-08-07 13:35:05 GMT 47.183441 0.790804 36,025 27 486 0
2020-08-07 13:35:02 GMT 47.178879 0.787354 36,025 25 486 0
2020-08-07 13:34:58 GMT 47.171951 0.782364 36,025 25 485 64
2020-08-07 13:34:54 GMT 47.160770 0.775100 36,025 21 484 64
2020-08-07 13:34:50 GMT 47.154671 0.771508 36,000 17 483 0
2020-08-07 13:34:47 GMT 47.148571 0.768268 36,000 19 483 64
2020-08-07 13:34:43 GMT 47.139771 0.764030 36,000 17 482 0
2020-08-07 13:34:39 GMT 47.132137 0.760522 36,000 19 484 -64
2020-08-07 13:34:36 GMT 47.114639 0.751328 36,000 22 484 -64
2020-08-07 13:34:31 GMT 47.114639 0.751328 36,000 25 485 -64
2020-08-07 13:34:27 GMT 47.099178 0.740662 36,000 27 485 0
2020-08-07 13:34:23 GMT 47.094131 0.736496 36,000 29 486 0
2020-08-07 13:34:20 GMT 47.085571 0.729218 36,000 30 485 0
2020-08-07 13:34:16 GMT 47.085571 0.729218 36,000 30 486 0
2020-08-07 13:34:13 GMT 47.077438 0.722281 36,000 29 486 0
2020-08-07 13:34:10 GMT 47.065617 0.712492 36,000 28 486 0
2020-08-07 13:34:07 GMT 47.065617 0.712492 36,000 28 486 0
2020-08-07 13:34:04 GMT 47.059937 0.708069 36,000 28 485 64
2020-08-07 13:34:01 GMT 47.053940 0.703400 36,000 27 485 0
2020-08-07 13:33:56 GMT 47.045879 0.697350 36,000 26 485 0
2020-08-07 13:33:53 GMT 47.031235 0.686920 36,000 25 485 0
2020-08-07 13:33:50 GMT 47.026062 0.683418 36,000 24 484 -64
2020-08-07 13:33:46 GMT 47.026062 0.683418 36,000 24 485 -64
2020-08-07 13:33:42 GMT 47.017296 0.677561 36,000 23 485 0
2020-08-07 13:33:39 GMT 47.004444 0.669603 36,000 22 484 0
2020-08-07 13:33:36 GMT 47.004444 0.669603 36,000 22 483 0
2020-08-07 13:33:33 GMT 46.998627 0.666152 36,000 21 484 0
2020-08-07 13:33:30 GMT 46.992622 0.662631 36,000 20 483 0
2020-08-07 13:33:26 GMT 46.983826 0.657771 36,000 20 483 0
2020-08-07 13:33:23 GMT 46.977631 0.654391 36,000 20 483 0
2020-08-07 13:33:20 GMT 46.971813 0.651292 36,000 20 483 0
2020-08-07 13:33:17 GMT 46.965820 0.648125 36,000 20 483 0
2020-08-07 13:33:14 GMT 46.959244 0.644602 36,000 20 484 0
2020-08-07 13:33:11 GMT 46.947464 0.638306 36,000 20 484 0
2020-08-07 13:33:05 GMT 46.938435 0.633474 36,000 20 484 0
2020-08-07 13:33:02 GMT 46.932896 0.630517 36,000 20 484 0
2020-08-07 13:32:58 GMT 46.924515 0.626009 36,000 20 484 0
2020-08-07 13:32:55 GMT 46.919952 0.623615 36,000 20 486 -64
2020-08-07 13:32:51 GMT 46.911015 0.618826 36,000 20 484 0
2020-08-07 13:32:47 GMT 46.901752 0.613896 36,000 20 484 -64
2020-08-07 13:32:44 GMT 46.896446 0.611079 36,000 20 484 -64
2020-08-07 13:32:41 GMT 46.889091 0.607135 36,000 20 484 0
2020-08-07 13:32:38 GMT 46.882946 0.603825 36,000 20 484 0
2020-08-07 13:32:35 GMT 46.876465 0.600334 36,000 20 484 0
2020-08-07 13:32:32 GMT 46.871216 0.597487 36,000 20 484 0
2020-08-07 13:32:29 GMT 46.862694 0.592918 36,000 20 484 0
2020-08-07 13:32:26 GMT 46.856548 0.589622 36,000 20 484 0
2020-08-07 13:32:23 GMT 46.852406 0.587425 36,000 20 486 0
2020-08-07 13:32:18 GMT 46.835358 0.578256 36,000 20 485 0
2020-08-07 13:32:15 GMT 46.835358 0.578256 36,000 20 485 0
2020-08-07 13:32:11 GMT 46.819702 0.569882 36,000 20 485 64
2020-08-07 13:32:08 GMT 46.814163 0.566935 36,000 20 485 64
2020-08-07 13:32:05 GMT 46.814163 0.566935 36,000 20 485 0
2020-08-07 13:32:02 GMT 46.806747 0.562915 36,000 20 485 0
2020-08-07 13:31:58 GMT 46.799152 0.558861 36,000 20 485 0
2020-08-07 13:31:54 GMT 46.790260 0.554123 36,000 20 485 0
2020-08-07 13:31:51 GMT 46.782623 0.550053 36,000 20 485 0
2020-08-07 13:31:47 GMT 46.776215 0.546570 36,000 20 485 0
2020-08-07 13:31:44 GMT 46.769852 0.543220 36,000 20 486 0
2020-08-07 13:31:41 GMT 46.761864 0.538948 36,000 20 486 0
2020-08-07 13:31:35 GMT 46.742123 0.528374 36,000 20 486 -64
2020-08-07 13:31:31 GMT 46.742123 0.528374 36,000 20 486 -64
2020-08-07 13:31:27 GMT 46.728378 0.521047 36,000 20 486 -64
2020-08-07 13:31:21 GMT 46.720139 0.516692 36,000 20 486 0
2020-08-07 13:31:18 GMT 46.714600 0.513745 36,000 20 486 0
2020-08-07 13:31:14 GMT 46.707165 0.509766 36,000 20 486 0
2020-08-07 13:31:11 GMT 46.699173 0.505505 36,000 20 486 0
2020-08-07 13:31:08 GMT 46.693085 0.502290 36,000 20 487 0
2020-08-07 13:31:05 GMT 46.685703 0.498367 36,000 20 487 0
2020-08-07 13:30:58 GMT 46.672440 0.491303 36,000 20 486 0
2020-08-07 13:30:54 GMT 46.664474 0.487083 36,000 20 487 0
2020-08-07 13:30:51 GMT 46.656796 0.482986 36,000 20 487 0
2020-08-07 13:30:48 GMT 46.651337 0.480116 36,000 20 487 0
2020-08-07 13:30:45 GMT 46.645569 0.477034 36,000 20 487 0
2020-08-07 13:30:42 GMT 46.639153 0.473648 36,000 20 488 64
2020-08-07 13:30:38 GMT 46.629932 0.468704 36,000 20 488 64
2020-08-07 13:30:34 GMT 46.621181 0.464104 36,000 19 489 64
2020-08-07 13:30:30 GMT 46.607437 0.456803 36,000 20 489 0
2020-08-07 13:30:23 GMT 46.597813 0.451675 35,975 20 489 0
2020-08-07 13:30:20 GMT 46.590225 0.447693 36,000 19 489 0
2020-08-07 13:30:17 GMT 46.585106 0.445015 36,000 19 489 0
2020-08-07 13:30:14 GMT 46.579006 0.441788 36,000 19 489 0
2020-08-07 13:30:10 GMT 46.570393 0.437256 36,000 19 488 0
2020-08-07 13:30:07 GMT 46.564819 0.434295 36,000 19 487 0
2020-08-07 13:30:04 GMT 46.557312 0.430321 36,000 19 487 0
2020-08-07 13:30:01 GMT 46.551773 0.427462 36,050 19 483 -960
2020-08-07 13:29:58 GMT 46.543533 0.423108 36,000 19 485 -256
2020-08-07 13:29:53 GMT 46.535992 0.419128 36,025 19 484 -384
2020-08-07 13:29:50 GMT 46.526459 0.414131 36,050 19 483 -768
2020-08-07 13:29:47 GMT 46.522293 0.411920 36,075 19 483 -960
2020-08-07 13:29:43 GMT 46.514065 0.407593 36,100 19 482 -1088
2020-08-07 13:29:40 GMT 46.508663 0.404778 36,150 19 481 -1088
2020-08-07 13:29:37 GMT 46.501053 0.400800 36,225 19 480 -1024
2020-08-07 13:29:33 GMT 46.492699 0.396400 36,275 19 480 -1024
2020-08-07 13:29:30 GMT 46.486221 0.392962 36,325 19 479 -1024
2020-08-07 13:29:27 GMT 46.473145 0.386169 36,425 19 477 -960
2020-08-07 13:29:24 GMT 46.473145 0.386169 36,550 19 477 -960
2020-08-07 13:29:21 GMT 46.466442 0.382599 36,500 19 476 -960
2020-08-07 13:29:17 GMT 46.456512 0.377354 36,575 20 475 -960
2020-08-07 13:29:14 GMT 46.451477 0.374741 36,600 20 475 -960
2020-08-07 13:29:10 GMT 46.445168 0.371407 36,650 20 474 -1088
2020-08-07 13:29:07 GMT 46.431015 0.363889 36,725 20 474 -1024
2020-08-07 13:29:03 GMT 46.431015 0.363889 36,775 20 474 -1024
2020-08-07 13:29:00 GMT 46.424080 0.360214 37,575 19 477 -1024
2020-08-07 13:28:57 GMT 46.418655 0.357324 36,850 20 474 -1088
2020-08-07 13:28:53 GMT 46.408203 0.351768 36,925 20 474 -1088
2020-08-07 13:28:49 GMT 46.402817 0.348950 36,975 20 474 -1088
2020-08-07 13:28:46 GMT 46.392838 0.343658 37,025 20 474 -1024
2020-08-07 13:28:43 GMT 46.388626 0.341380 37,100 20 475 -960
2020-08-07 13:28:40 GMT 46.381111 0.337418 37,125 20 475 -960
2020-08-07 13:28:37 GMT 46.376633 0.335083 39,000 20 473 0
2020-08-07 13:28:34 GMT 46.371323 0.332269 37,250 20 475 -960
2020-08-07 13:28:30 GMT 46.363266 0.328049 37,275 20 475 -960
2020-08-07 13:28:27 GMT 46.356068 0.324234 37,375 19 477 -1024
2020-08-07 13:28:23 GMT 46.347748 0.319809 37,400 20 477 -960
2020-08-07 13:28:19 GMT 46.334187 0.312698 37,500 20 477 -960
2020-08-07 13:28:12 GMT 46.326096 0.308421 37,600 19 477 -1024
2020-08-07 13:28:09 GMT 46.319824 0.305139 37,625 19 478 -1024
2020-08-07 13:28:06 GMT 46.312634 0.301369 37,675 19 478 -1088
2020-08-07 13:28:03 GMT 46.305542 0.297703 37,725 19 479 -1024
2020-08-07 13:27:59 GMT 46.296761 0.293129 37,825 19 479 -1024
2020-08-07 13:27:56 GMT 46.291313 0.290314 37,850 19 478 -1024
2020-08-07 13:27:53 GMT 46.278835 0.283722 37,925 19 478 -1024
2020-08-07 13:27:50 GMT 46.278835 0.283722 37,975 19 477 -1024
2020-08-07 13:27:47 GMT 46.270340 0.279280 38,025 19 477 -960
2020-08-07 13:27:44 GMT 46.266312 0.277204 38,075 19 476 -960
2020-08-07 13:27:40 GMT 46.252350 0.269902 38,150 19 474 -960
2020-08-07 13:27:34 GMT 46.243698 0.265414 38,400 19 471 -1024
2020-08-07 13:27:27 GMT 46.231384 0.258983 38,350 19 471 -1024
2020-08-07 13:27:23 GMT 46.223740 0.254963 39,025 19 471 -1024
2020-08-07 13:27:20 GMT 46.218552 0.252274 38,450 19 470 -1024
2020-08-07 13:27:17 GMT 46.203461 0.244379 39,025 3 469 0
2020-08-07 13:27:13 GMT 46.203461 0.244379 38,550 19 470 -960
2020-08-07 13:27:09 GMT 46.195087 0.239983 38,600 19 470 -960
2020-08-07 13:27:06 GMT 46.190247 0.237511 38,650 19 470 -960
2020-08-07 13:27:03 GMT 46.183357 0.233940 38,675 19 469 -960
2020-08-07 13:27:00 GMT 46.177734 0.230981 38,750 19 470 -960
2020-08-07 13:26:57 GMT 46.171692 0.227899 38,775 19 471 -960
2020-08-07 13:26:54 GMT 46.163059 0.223434 38,875 19 471 -832
2020-08-07 13:26:51 GMT 46.156998 0.220329 38,900 19 471 -704
2020-08-07 13:26:47 GMT 46.147614 0.215506 38,950 19 471 -576
2020-08-07 13:26:43 GMT 46.141087 0.212173 38,975 19 471 -64
2020-08-07 13:26:40 GMT 46.135735 0.209358 38,975 19 471 -64
2020-08-07 13:26:37 GMT 46.128006 0.205376 39,000 19 472 -64
2020-08-07 13:26:34 GMT 46.123772 0.203247 39,000 19 472 -64
2020-08-07 13:26:31 GMT 46.115299 0.198853 39,000 19 472 -64
2020-08-07 13:26:27 GMT 46.108841 0.195543 39,000 19 473 -64
2020-08-07 13:26:21 GMT 46.097534 0.189581 39,000 346 463 0
2020-08-07 13:26:18 GMT 46.090256 0.185763 39,000 20 474 0
2020-08-07 13:26:15 GMT 46.082245 0.181609 39,000 20 474 0
2020-08-07 13:26:11 GMT 46.077072 0.178863 39,000 20 474 0
2020-08-07 13:26:08 GMT 46.069656 0.174910 39,000 20 475 -64
2020-08-07 13:26:04 GMT 46.055374 0.167475 39,025 17 474 0
2020-08-07 13:25:58 GMT 46.049103 0.164520 39,025 14 474 -64
2020-08-07 13:25:55 GMT 46.041870 0.161646 39,025 14 473 0
2020-08-07 13:25:52 GMT 46.034134 0.159101 39,025 10 473 0
2020-08-07 13:25:48 GMT 46.018799 0.155550 39,025 6 471 0
2020-08-07 13:25:44 GMT 46.018799 0.155550 39,000 332 457 0
2020-08-07 13:25:41 GMT 46.013302 0.154770 39,025 4 470 0
2020-08-07 13:25:38 GMT 46.006786 0.154152 39,025 1 469 0
2020-08-07 13:25:34 GMT 45.996735 0.153876 39,025 359 468 0
2020-08-07 13:25:31 GMT 45.990646 0.154077 39,025 358 467 0
2020-08-07 13:25:27 GMT 45.982224 0.154947 39,025 355 466 0
2020-08-07 13:25:24 GMT 45.974442 0.156287 39,025 351 465 0
2020-08-07 13:25:21 GMT 45.969040 0.157426 39,025 350 464 0
2020-08-07 13:25:18 GMT 45.961536 0.159576 39,025 348 463 0
2020-08-07 13:25:13 GMT 45.949997 0.163723 39,025 344 461 0
2020-08-07 13:25:10 GMT 45.947060 0.164932 39,025 343 461 64
2020-08-07 13:25:05 GMT 45.934753 0.171092 39,000 339 459 64
2020-08-07 13:25:01 GMT 45.927841 0.175178 39,000 336 458 64
2020-08-07 13:24:57 GMT 45.921501 0.179420 39,000 325 454 -64
2020-08-07 13:24:54 GMT 45.914932 0.184289 39,000 331 457 0
2020-08-07 13:24:51 GMT 45.909210 0.188978 39,000 329 456 0
2020-08-07 13:24:46 GMT 45.899761 0.197548 39,000 325 454 -64
2020-08-07 13:24:43 GMT 45.896622 0.200768 39,000 324 454 -64
2020-08-07 13:24:40 GMT 45.891335 0.206406 39,025 322 453 -64
2020-08-07 13:24:36 GMT 45.883888 0.215126 39,025 319 452 -64
2020-08-07 13:24:33 GMT 45.879913 0.220262 39,025 317 452 -64
2020-08-07 13:24:30 GMT 45.875786 0.225906 39,025 315 451 0
2020-08-07 13:24:27 GMT 45.870575 0.233593 39,025 311 449 -64
2020-08-07 13:24:24 GMT 45.864807 0.242838 39,025 310 450 -64
2020-08-07 13:24:21 GMT 45.862007 0.247810 39,025 302 446 -64
2020-08-07 13:24:17 GMT 45.856979 0.257355 39,025 306 448 -64
2020-08-07 13:24:14 GMT 45.853397 0.264702 39,025 303 447 -64
2020-08-07 13:24:11 GMT 45.849518 0.273385 39,025 302 446 -64
2020-08-07 13:24:07 GMT 45.845806 0.282555 39,025 298 445 -64
2020-08-07 13:24:03 GMT 45.842102 0.292678 39,050 295 445 -64
2020-08-07 13:24:00 GMT 45.839813 0.299511 39,000 294 443 0
2020-08-07 13:23:55 GMT 45.835846 0.313042 39,050 291 443 0
2020-08-07 13:23:52 GMT 45.834076 0.319771 39,050 288 442 0
2020-08-07 13:23:49 GMT 45.831848 0.329389 39,050 287 442 0
2020-08-07 13:23:43 GMT 45.828049 0.349486 39,025 276 440 0
2020-08-07 13:23:40 GMT 45.827179 0.355582 39,025 281 441 64
2020-08-07 13:23:34 GMT 45.824936 0.377153 39,025 266 439 64
2020-08-07 13:23:31 GMT 45.824524 0.382847 39,025 274 441 0
2020-08-07 13:23:28 GMT 45.823929 0.402006 39,025 272 440 0
2020-08-07 13:23:24 GMT 45.823929 0.402006 39,025 270 440 0
2020-08-07 13:23:20 GMT 45.824116 0.414322 39,025 267 439 0
2020-08-07 13:23:13 GMT 45.825256 0.433692 39,025 262 438 0
2020-08-07 13:23:10 GMT 45.825989 0.440860 39,025 260 438 0
2020-08-07 13:23:07 GMT 45.827515 0.452980 39,025 257 438 0
2020-08-07 13:23:04 GMT 45.828644 0.460153 39,025 256 437 0
2020-08-07 13:23:01 GMT 45.830383 0.469599 39,025 254 438 0
2020-08-07 13:22:57 GMT 45.832123 0.477837 39,025 253 437 0
2020-08-07 13:22:53 GMT 45.837708 0.499275 39,025 245 437 0
2020-08-07 13:22:49 GMT 45.837708 0.499275 39,025 245 437 0
2020-08-07 13:22:42 GMT 45.845390 0.521782 39,025 241 437 0
2020-08-07 13:22:39 GMT 45.846771 0.525267 39,025 239 437 0
2020-08-07 13:22:32 GMT 45.854736 0.543287 39,025 236 437 0
2020-08-07 13:22:29 GMT 45.858902 0.551527 39,025 233 437 0
2020-08-07 13:22:26 GMT 45.861511 0.556283 39,025 232 437 64
2020-08-07 13:22:22 GMT 45.867035 0.565865 39,000 229 437 64
2020-08-07 13:22:19 GMT 45.871273 0.572594 39,000 227 437 64
2020-08-07 13:22:16 GMT 45.874695 0.577720 39,000 225 437 0
2020-08-07 13:22:12 GMT 45.881790 0.587635 39,000 221 438 0
2020-08-07 13:22:09 GMT 45.885635 0.592592 39,000 221 438 0
2020-08-07 13:22:06 GMT 45.890266 0.598137 39,000 220 438 0
2020-08-07 13:22:02 GMT 45.897247 0.606102 39,000 217 439 0
2020-08-07 13:21:59 GMT 45.902229 0.611389 39,000 215 439 0
2020-08-07 13:21:55 GMT 45.908020 0.617043 39,000 213 438 0
2020-08-07 13:21:52 GMT 45.919464 0.627092 39,000 209 439 0
2020-08-07 13:21:43 GMT 45.929947 0.635331 39,000 209 439 0
2020-08-07 13:21:40 GMT 45.936035 0.640088 39,000 209 439 0
2020-08-07 13:21:33 GMT 45.947891 0.649332 39,000 209 439 0
2020-08-07 13:21:28 GMT 45.955673 0.655428 39,000 209 439 0
2020-08-07 13:21:24 GMT 45.962448 0.660720 39,000 209 439 0
2020-08-07 13:21:21 GMT 45.968719 0.665611 39,000 209 438 0
2020-08-07 13:21:18 GMT 45.974106 0.669823 39,000 209 438 0
2020-08-07 13:21:14 GMT 45.981087 0.675247 39,000 209 438 0
2020-08-07 13:21:11 GMT 45.987030 0.679880 39,000 209 438 0
2020-08-07 13:21:08 GMT 45.993656 0.685066 39,000 209 438 0
2020-08-07 13:21:04 GMT 45.999058 0.689255 39,000 209 438 0
2020-08-07 13:21:00 GMT 46.006348 0.694952 39,000 209 438 0
2020-08-07 13:20:56 GMT 46.013676 0.700722 39,000 209 438 0
2020-08-07 13:20:53 GMT 46.024796 0.709422 39,000 209 436 0
2020-08-07 13:20:49 GMT 46.024796 0.709422 39,000 209 437 0
2020-08-07 13:20:46 GMT 46.031410 0.714592 39,000 209 437 0
2020-08-07 13:20:41 GMT 46.041779 0.722753 39,000 209 437 0
2020-08-07 13:20:37 GMT 46.054276 0.732601 39,000 209 436 0
2020-08-07 13:20:33 GMT 46.054276 0.732601 39,000 209 436 0
2020-08-07 13:20:30 GMT 46.060135 0.737223 39,000 209 437 0
2020-08-07 13:20:27 GMT 46.069748 0.744793 39,000 209 437 0
2020-08-07 13:20:21 GMT 46.075058 0.749013 39,000 209 437 0
2020-08-07 13:20:18 GMT 46.080616 0.753456 39,000 209 437 0
2020-08-07 13:20:15 GMT 46.086205 0.757851 39,000 209 436 0
2020-08-07 13:20:12 GMT 46.099960 0.768775 39,000 209 436 0
2020-08-07 13:20:08 GMT 46.099960 0.768775 39,000 209 436 0
2020-08-07 13:20:04 GMT 46.104813 0.772660 38,975 209 436 0
2020-08-07 13:20:01 GMT 46.112087 0.778450 38,975 209 436 0
2020-08-07 13:19:58 GMT 46.116531 0.781972 38,975 209 436 0
2020-08-07 13:19:55 GMT 46.122513 0.786690 38,975 209 435 -64
2020-08-07 13:19:50 GMT 46.131454 0.793762 38,975 209 436 0
2020-08-07 13:19:47 GMT 46.135826 0.797195 38,975 209 435 0
2020-08-07 13:19:43 GMT 46.143044 0.802895 38,975 209 435 0
2020-08-07 13:19:40 GMT 46.147522 0.806490 38,975 209 435 0
2020-08-07 13:19:37 GMT 46.162216 0.818080 38,975 209 436 0
2020-08-07 13:19:32 GMT 46.162216 0.818080 38,975 209 436 0
2020-08-07 13:19:29 GMT 46.174000 0.827339 38,975 209 436 -64
2020-08-07 13:19:22 GMT 46.180252 0.832281 39,000 209 435 -64
2020-08-07 13:19:19 GMT 46.185654 0.836502 38,975 209 435 -64
2020-08-07 13:19:16 GMT 46.190990 0.840660 38,975 209 435 0
2020-08-07 13:19:13 GMT 46.201748 0.849106 39,000 209 435 -64
2020-08-07 13:19:10 GMT 46.201748 0.849106 39,000 209 435 -64
2020-08-07 13:19:06 GMT 46.207764 0.853785 39,000 209 435 0
2020-08-07 13:19:03 GMT 46.213623 0.858407 39,000 209 435 -64
2020-08-07 13:19:00 GMT 46.219204 0.862770 39,000 209 435 0
2020-08-07 13:18:57 GMT 46.223766 0.866341 39,000 209 435 0
2020-08-07 13:18:53 GMT 46.239258 0.878437 39,000 209 435 0
2020-08-07 13:18:49 GMT 46.239258 0.878437 39,000 209 435 -64
2020-08-07 13:18:46 GMT 46.242691 0.881117 39,000 209 435 -64
2020-08-07 13:18:40 GMT 46.253979 0.890030 39,000 209 436 -64
2020-08-07 13:18:37 GMT 46.263931 0.897864 39,000 209 435 0
2020-08-07 13:18:31 GMT 46.275192 0.906774 39,025 209 436 0
2020-08-07 13:18:28 GMT 46.275192 0.906774 39,025 209 435 -64
2020-08-07 13:18:22 GMT 46.284889 0.914474 39,025 209 435 0
2020-08-07 13:18:19 GMT 46.291637 0.919830 39,025 209 435 0
2020-08-07 13:18:16 GMT 46.296982 0.924057 39,025 209 436 0
2020-08-07 13:18:13 GMT 46.302292 0.928211 39,025 209 435 0
2020-08-07 13:18:10 GMT 46.308815 0.933426 39,025 209 436 0
2020-08-07 13:18:04 GMT 46.320129 0.942352 39,025 209 436 64
2020-08-07 13:17:59 GMT 46.327206 0.947983 39,025 209 437 0
2020-08-07 13:17:56 GMT 46.332001 0.951858 39,025 209 436 0
2020-08-07 13:17:52 GMT 46.339325 0.957619 39,000 209 437 0
2020-08-07 13:17:47 GMT 46.348755 0.965122 39,025 209 437 64
2020-08-07 13:17:44 GMT 46.353561 0.968941 39,000 209 437 64
2020-08-07 13:17:39 GMT 46.364819 0.977921 39,000 209 437 64
2020-08-07 13:17:36 GMT 46.367615 0.980128 39,000 209 437 64
2020-08-07 13:17:33 GMT 46.374828 0.985886 39,000 209 437 64
2020-08-07 13:17:28 GMT 46.386017 0.994799 39,000 209 438 64
2020-08-07 13:17:22 GMT 46.392143 0.999687 39,000 209 438 64
2020-08-07 13:17:19 GMT 46.399502 1.005524 39,000 209 438 0
2020-08-07 13:17:16 GMT 46.403084 1.008339 39,000 209 438 0
2020-08-07 13:17:13 GMT 46.408390 1.012596 39,000 209 438 0
2020-08-07 13:17:06 GMT 46.421055 1.022690 39,000 209 438 0
2020-08-07 13:17:03 GMT 46.426407 1.026947 39,000 209 438 0
2020-08-07 13:16:59 GMT 46.434448 1.033385 39,000 209 438 0
2020-08-07 13:16:53 GMT 46.444107 1.041089 39,000 209 438 0
2020-08-07 13:16:50 GMT 46.449509 1.045443 39,000 209 438 0
2020-08-07 13:16:47 GMT 46.454041 1.049060 39,000 209 438 0
2020-08-07 13:16:44 GMT 46.459305 1.053281 39,000 209 438 0
2020-08-07 13:16:41 GMT 46.464951 1.057777 39,000 209 438 0
2020-08-07 13:16:37 GMT 46.473610 1.064713 39,000 209 438 0
2020-08-07 13:16:33 GMT 46.480736 1.070343 39,000 209 438 0
2020-08-07 13:16:29 GMT 46.485352 1.074048 39,000 209 438 0
2020-08-07 13:16:26 GMT 46.492325 1.079613 39,000 209 438 0
2020-08-07 13:16:20 GMT 46.507462 1.091733 39,000 209 438 0
2020-08-07 13:16:16 GMT 46.510155 1.093826 38,975 209 438 0
2020-08-07 13:16:13 GMT 46.515041 1.097740 39,000 209 438 0
2020-08-07 13:16:10 GMT 46.520142 1.101781 39,000 209 438 0
2020-08-07 13:16:06 GMT 46.527473 1.107697 38,975 209 438 0
2020-08-07 13:16:03 GMT 46.532871 1.112022 39,000 209 438 0
2020-08-07 13:15:59 GMT 46.539345 1.117172 39,000 209 438 0
2020-08-07 13:15:55 GMT 46.547058 1.123285 39,000 209 438 0
2020-08-07 13:15:51 GMT 46.554108 1.128912 39,000 209 438 0
2020-08-07 13:15:46 GMT 46.563629 1.136616 39,000 209 437 0
2020-08-07 13:15:43 GMT 46.572372 1.143583 39,000 209 438 -64
2020-08-07 13:15:40 GMT 46.572372 1.143583 39,000 209 438 -64
2020-08-07 13:15:36 GMT 46.580475 1.150081 39,000 210 440 0
2020-08-07 13:15:33 GMT 46.587341 1.155641 39,000 209 438 -64
2020-08-07 13:15:30 GMT 46.596371 1.162834 39,000 209 438 -64
2020-08-07 13:15:27 GMT 46.596371 1.162834 39,000 209 438 -64
2020-08-07 13:15:24 GMT 46.600845 1.166426 39,000 209 438 -64
2020-08-07 13:15:21 GMT 46.608055 1.172241 39,000 209 438 -64
2020-08-07 13:15:17 GMT 46.614944 1.177734 39,025 209 437 -64
2020-08-07 13:15:14 GMT 46.620018 1.181854 39,025 209 437 -64
2020-08-07 13:15:10 GMT 46.626480 1.186992 39,025 209 438 -64
2020-08-07 13:15:06 GMT 46.633026 1.192285 39,025 210 439 0
2020-08-07 13:15:03 GMT 46.639431 1.197441 39,025 210 439 0
2020-08-07 13:15:00 GMT 46.644363 1.201492 39,025 210 438 0
2020-08-07 13:14:56 GMT 46.650742 1.206620 39,025 210 439 0
2020-08-07 13:14:50 GMT 46.662323 1.215932 39,025 210 439 0
2020-08-07 13:14:46 GMT 46.668991 1.221336 39,025 210 439 0
2020-08-07 13:14:43 GMT 46.674545 1.225846 39,025 210 439 0
2020-08-07 13:14:40 GMT 46.687180 1.236029 39,025 210 439 64
2020-08-07 13:14:36 GMT 46.687180 1.236029 39,000 210 439 0
2020-08-07 13:14:33 GMT 46.692825 1.240631 39,025 210 439 64
2020-08-07 13:14:27 GMT 46.704140 1.249763 39,000 210 440 0
2020-08-07 13:14:24 GMT 46.709473 1.254049 39,025 210 440 0
2020-08-07 13:14:20 GMT 46.715961 1.259308 39,025 210 440 0
2020-08-07 13:14:15 GMT 46.723690 1.265556 39,000 210 440 0
2020-08-07 13:14:12 GMT 46.729881 1.270569 39,000 210 440 64
2020-08-07 13:14:08 GMT 46.735466 1.275032 39,000 210 440 64
2020-08-07 13:14:05 GMT 46.743053 1.281212 39,000 210 441 0
2020-08-07 13:14:02 GMT 46.747375 1.284664 39,000 210 441 64
2020-08-07 13:13:56 GMT 46.762001 1.296455 39,000 210 441 0
2020-08-07 13:13:53 GMT 46.763763 1.297860 39,000 210 441 0
2020-08-07 13:13:50 GMT 46.768341 1.301612 39,000 210 441 0
2020-08-07 13:13:47 GMT 46.773239 1.305564 39,000 210 441 0
2020-08-07 13:13:44 GMT 46.780670 1.311562 39,000 210 441 0
2020-08-07 13:13:38 GMT 46.790131 1.319163 39,000 210 441 0
2020-08-07 13:13:35 GMT 46.795521 1.323578 39,000 210 441 0
2020-08-07 13:13:32 GMT 46.800735 1.327766 39,000 210 441 0
2020-08-07 13:13:28 GMT 46.812241 1.337117 39,000 210 440 0
2020-08-07 13:13:25 GMT 46.814236 1.338753 39,000 210 440 0
2020-08-07 13:13:22 GMT 46.824802 1.347267 39,000 210 440 0
2020-08-07 13:13:18 GMT 46.824802 1.347267 39,000 210 440 0
2020-08-07 13:13:15 GMT 46.831970 1.353060 39,000 210 441 0
2020-08-07 13:13:12 GMT 46.836548 1.356812 39,000 210 441 0
2020-08-07 13:13:09 GMT 46.843460 1.362372 39,000 210 441 0
2020-08-07 13:13:05 GMT 46.849411 1.367195 39,000 210 440 0
2020-08-07 13:13:02 GMT 46.856003 1.372554 39,000 210 440 0
2020-08-07 13:12:58 GMT 46.861633 1.377109 39,000 210 440 0
2020-08-07 13:12:55 GMT 46.867355 1.381737 39,000 210 440 0
2020-08-07 13:12:52 GMT 46.871166 1.384841 39,000 210 440 0
2020-08-07 13:12:46 GMT 46.882965 1.394440 39,000 210 440 0
2020-08-07 13:12:43 GMT 46.889374 1.399658 39,000 210 440 0
2020-08-07 13:12:40 GMT 46.892769 1.402377 39,000 210 440 0
2020-08-07 13:12:37 GMT 46.898712 1.407211 39,000 210 440 0
2020-08-07 13:12:33 GMT 46.907135 1.414078 39,000 210 440 0
2020-08-07 13:12:30 GMT 46.910690 1.416955 39,000 210 440 0
2020-08-07 13:12:27 GMT 46.917023 1.422112 39,000 210 441 -64
2020-08-07 13:12:24 GMT 46.928474 1.431392 39,000 210 441 0
2020-08-07 13:12:16 GMT 46.936523 1.437973 39,000 210 441 0
2020-08-07 13:12:13 GMT 46.942158 1.442589 39,000 210 441 0
2020-08-07 13:12:10 GMT 46.946674 1.446252 39,000 210 441 0
2020-08-07 13:12:07 GMT 46.954330 1.452461 39,000 210 442 0
2020-08-07 13:12:03 GMT 46.958824 1.456111 38,250 210 443 0
2020-08-07 13:12:00 GMT 46.965248 1.461322 39,000 210 443 0
2020-08-07 13:11:56 GMT 46.972092 1.466881 39,000 210 443 0
2020-08-07 13:11:53 GMT 46.977165 1.471041 39,000 210 443 0
2020-08-07 13:11:50 GMT 46.984589 1.477112 39,000 210 443 0
2020-08-07 13:11:46 GMT 46.990036 1.481575 39,000 210 443 64
2020-08-07 13:11:42 GMT 46.997406 1.487549 38,150 210 439 704
2020-08-07 13:11:39 GMT 47.002350 1.491600 39,000 210 444 0
2020-08-07 13:11:36 GMT 47.007935 1.496201 39,000 210 444 0
2020-08-07 13:11:32 GMT 47.015339 1.502240 38,050 210 444 64
2020-08-07 13:11:29 GMT 47.024696 1.509916 39,000 210 444 64
2020-08-07 13:11:23 GMT 47.039108 1.521675 39,000 210 444 0
2020-08-07 13:11:20 GMT 47.039108 1.521675 37,975 210 440 896
2020-08-07 13:11:16 GMT 47.046062 1.527381 39,000 210 445 0
2020-08-07 13:11:13 GMT 47.049591 1.530327 39,000 210 445 0
2020-08-07 13:11:09 GMT 47.056118 1.535621 39,000 210 444 256
2020-08-07 13:11:06 GMT 47.060669 1.539322 39,000 210 444 192
2020-08-07 13:11:02 GMT 47.070374 1.547287 38,975 210 443 320
2020-08-07 13:10:59 GMT 47.075546 1.551476 38,950 210 443 320
2020-08-07 13:10:54 GMT 47.084656 1.558932 38,925 210 443 384
2020-08-07 13:10:51 GMT 47.089172 1.562664 38,900 210 442 384
2020-08-07 13:10:48 GMT 47.093765 1.566376 38,900 210 441 384
2020-08-07 13:10:45 GMT 47.100807 1.572101 38,875 210 441 448
2020-08-07 13:10:41 GMT 47.111797 1.581116 38,825 210 442 1216
2020-08-07 13:10:38 GMT 47.120735 1.588370 38,775 210 441 704
2020-08-07 13:10:33 GMT 47.120735 1.588370 38,750 210 441 896
2020-08-07 13:10:30 GMT 47.125759 1.592454 38,750 210 441 896
2020-08-07 13:10:27 GMT 47.130432 1.596313 38,650 210 442 896
2020-08-07 13:10:24 GMT 47.142197 1.605927 38,300 210 443 832
2020-08-07 13:10:21 GMT 47.142197 1.605927 38,575 210 443 832
2020-08-07 13:10:18 GMT 47.147781 1.610553 38,550 210 443 832
2020-08-07 13:10:13 GMT 47.156754 1.617943 38,450 210 443 832
2020-08-07 13:10:10 GMT 47.161980 1.622244 38,425 210 443 768
2020-08-07 13:10:06 GMT 47.178223 1.635590 38,350 210 443 448
2020-08-07 13:10:01 GMT 47.178223 1.635590 38,350 210 443 512
2020-08-07 13:09:58 GMT 47.187698 1.643349 38,300 210 443 256
2020-08-07 13:09:52 GMT 47.198662 1.652386 38,275 210 442 320
2020-08-07 13:09:46 GMT 47.206249 1.658654 38,275 210 442 320
2020-08-07 13:09:41 GMT 47.214386 1.665321 38,225 210 440 448
2020-08-07 13:09:38 GMT 47.219788 1.669785 38,200 210 440 448
2020-08-07 13:09:35 GMT 47.223522 1.672880 38,200 210 440 448
2020-08-07 13:09:31 GMT 47.232040 1.679781 38,150 210 439 640
2020-08-07 13:09:28 GMT 47.237595 1.684341 38,125 210 440 832
2020-08-07 13:09:25 GMT 47.242001 1.687951 38,075 210 440 896
2020-08-07 13:09:21 GMT 47.248798 1.693585 38,025 210 440 960
2020-08-07 13:09:18 GMT 47.255951 1.699516 37,975 210 440 896
2020-08-07 13:09:15 GMT 47.260254 1.703087 37,925 210 440 832
2020-08-07 13:09:11 GMT 47.272842 1.713524 37,850 210 441 832
2020-08-07 13:09:08 GMT 47.272842 1.713524 37,825 210 441 896
2020-08-07 13:09:05 GMT 47.281586 1.720802 37,750 210 441 896
2020-08-07 13:09:02 GMT 47.284286 1.723068 37,750 210 441 896
2020-08-07 13:08:58 GMT 47.291336 1.728905 37,625 210 442 1216
2020-08-07 13:08:54 GMT 47.298332 1.734783 37,600 210 442 1280
2020-08-07 13:08:51 GMT 47.302845 1.738516 37,525 210 442 1280
2020-08-07 13:08:48 GMT 47.307083 1.742108 37,475 210 443 1280
2020-08-07 13:08:45 GMT 47.313538 1.747513 37,275 210 444 1344
2020-08-07 13:08:41 GMT 47.320118 1.753094 37,300 210 445 1344
2020-08-07 13:08:38 GMT 47.325844 1.757953 37,225 211 445 1280
2020-08-07 13:08:35 GMT 47.332642 1.763658 37,175 211 445 1216
2020-08-07 13:08:30 GMT 47.339947 1.769855 37,100 211 447 896
2020-08-07 13:08:27 GMT 47.345261 1.774429 37,075 211 447 640
2020-08-07 13:08:24 GMT 47.351349 1.779579 37,050 211 446 576
2020-08-07 13:08:21 GMT 47.356339 1.783905 37,025 211 446 128
2020-08-07 13:08:18 GMT 47.367367 1.793236 37,000 209 445 0
2020-08-07 13:08:12 GMT 47.372814 1.797603 37,000 208 445 0
2020-08-07 13:08:08 GMT 47.383476 1.805631 37,000 205 446 0
2020-08-07 13:08:04 GMT 47.386963 1.808006 37,000 205 446 0
2020-08-07 13:08:01 GMT 47.392551 1.811688 37,000 204 446 0
2020-08-07 13:07:57 GMT 47.399349 1.815843 37,000 201 448 0
2020-08-07 13:07:54 GMT 47.406326 1.819748 37,000 200 448 0
2020-08-07 13:07:51 GMT 47.411911 1.822701 37,000 200 448 0
2020-08-07 13:07:48 GMT 47.419460 1.826618 37,000 200 448 0
2020-08-07 13:07:44 GMT 47.426651 1.830391 37,000 200 448 0
2020-08-07 13:07:41 GMT 47.432327 1.833275 37,000 200 448 0
2020-08-07 13:07:37 GMT 47.439743 1.837120 37,000 200 448 0
2020-08-07 13:07:33 GMT 47.449486 1.842182 37,000 200 448 0
2020-08-07 13:07:30 GMT 47.458786 1.846939 37,000 200 448 0
2020-08-07 13:07:27 GMT 47.458786 1.846939 37,000 200 448 0
2020-08-07 13:07:24 GMT 47.466106 1.850703 37,000 200 449 0
2020-08-07 13:07:21 GMT 47.471272 1.853379 37,000 200 449 0
2020-08-07 13:07:17 GMT 47.479092 1.857464 37,000 200 449 0
2020-08-07 13:07:11 GMT 47.491615 1.863873 37,000 200 449 0
2020-08-07 13:07:07 GMT 47.497482 1.866901 37,000 200 449 0
2020-08-07 13:07:03 GMT 47.506119 1.871384 37,000 200 449 0
2020-08-07 13:07:00 GMT 47.520721 1.878937 37,000 200 449 0
2020-08-07 13:06:56 GMT 47.520721 1.878937 37,000 200 449 0
2020-08-07 13:06:53 GMT 47.525803 1.881546 37,000 200 450 0
2020-08-07 13:06:50 GMT 47.531792 1.884648 37,000 200 449 0
2020-08-07 13:06:47 GMT 47.540356 1.889085 37,000 200 449 0
2020-08-07 13:06:44 GMT 47.543289 1.890610 37,000 200 449 0
2020-08-07 13:06:41 GMT 47.549992 1.894085 37,000 200 449 0
2020-08-07 13:06:38 GMT 47.561096 1.899879 37,000 200 449 0
2020-08-07 13:06:35 GMT 47.568054 1.903522 37,000 200 449 64
2020-08-07 13:06:28 GMT 47.574829 1.907021 37,000 200 449 0
2020-08-07 13:06:24 GMT 47.582859 1.911199 37,000 200 449 0
2020-08-07 13:06:20 GMT 47.592865 1.916428 37,000 200 449 0
2020-08-07 13:06:16 GMT 47.606049 1.923294 37,000 200 449 0
2020-08-07 13:06:13 GMT 47.606049 1.923294 37,000 200 449 0
2020-08-07 13:06:10 GMT 47.612278 1.926551 37,000 200 449 0
2020-08-07 13:06:04 GMT 47.623032 1.932152 37,025 200 450 0
2020-08-07 13:06:00 GMT 47.632370 1.936958 37,000 200 450 0
2020-08-07 13:05:57 GMT 47.634384 1.938057 37,000 200 450 0
2020-08-07 13:05:53 GMT 47.650871 1.946552 37,000 200 451 0
2020-08-07 13:05:50 GMT 47.650871 1.946552 37,000 200 450 0
2020-08-07 13:05:47 GMT 47.653942 1.948172 37,000 200 450 0
2020-08-07 13:05:44 GMT 47.660740 1.951693 37,000 200 450 0
2020-08-07 13:05:41 GMT 47.667255 1.955073 37,000 200 450 0
2020-08-07 13:05:38 GMT 47.673264 1.958243 37,000 200 450 0
2020-08-07 13:05:34 GMT 47.680340 1.961905 37,000 200 450 0
2020-08-07 13:05:31 GMT 47.687851 1.965797 37,000 200 450 0
2020-08-07 13:05:28 GMT 47.694443 1.969231 37,000 200 450 0
2020-08-07 13:05:23 GMT 47.702263 1.973314 37,000 200 450 -64
2020-08-07 13:05:20 GMT 47.709549 1.977127 37,000 200 450 0
2020-08-07 13:05:17 GMT 47.718884 1.981976 37,000 200 450 0
2020-08-07 13:05:14 GMT 47.725021 1.985161 37,000 200 450 -64
2020-08-07 13:05:11 GMT 47.725021 1.985161 37,000 200 450 0
2020-08-07 13:05:08 GMT 47.733215 1.989487 37,000 200 450 0
2020-08-07 13:05:05 GMT 47.737411 1.991624 37,000 200 450 0
2020-08-07 13:05:02 GMT 47.744534 1.995357 37,000 200 450 0
2020-08-07 13:04:59 GMT 47.758125 2.002470 37,000 200 450 -64
2020-08-07 13:04:55 GMT 47.758125 2.002470 37,025 200 450 -64
2020-08-07 13:04:52 GMT 47.762970 2.005005 37,025 200 450 -64
2020-08-07 13:04:48 GMT 47.770889 2.009125 37,025 200 450 0
2020-08-07 13:04:45 GMT 47.775909 2.011695 37,025 200 450 0
2020-08-07 13:04:42 GMT 47.788803 2.018456 37,025 200 450 0
2020-08-07 13:04:39 GMT 47.794533 2.021484 37,025 200 450 0
2020-08-07 13:04:33 GMT 47.800209 2.024442 37,025 200 451 0
2020-08-07 13:04:30 GMT 47.812267 2.030780 37,025 200 451 0
2020-08-07 13:04:27 GMT 47.812267 2.030780 37,025 200 450 0
2020-08-07 13:04:24 GMT 47.817490 2.033501 37,025 200 451 0
2020-08-07 13:04:21 GMT 47.824585 2.037277 37,025 200 451 0
2020-08-07 13:04:18 GMT 47.830078 2.040161 37,025 200 451 0
2020-08-07 13:04:15 GMT 47.842163 2.046478 37,025 200 451 0
2020-08-07 13:04:12 GMT 47.849075 2.050117 37,025 200 451 0
2020-08-07 13:04:09 GMT 47.849075 2.050117 37,025 200 451 0
2020-08-07 13:04:03 GMT 47.858459 2.054993 37,025 200 451 0
2020-08-07 13:04:00 GMT 47.871716 2.061979 37,025 200 451 0
2020-08-07 13:03:57 GMT 47.871716 2.061979 37,025 200 451 0
2020-08-07 13:03:54 GMT 47.877579 2.065078 37,025 200 451 0
2020-08-07 13:03:51 GMT 47.882889 2.067824 37,025 200 450 0
2020-08-07 13:03:47 GMT 47.892471 2.072914 37,025 200 451 0
2020-08-07 13:03:43 GMT 47.901306 2.077515 37,000 200 451 0
2020-08-07 13:03:39 GMT 47.912354 2.083388 37,025 200 451 0
2020-08-07 13:03:36 GMT 47.912354 2.083388 37,025 200 451 0
2020-08-07 13:03:33 GMT 47.917923 2.086304 37,025 200 451 0
2020-08-07 13:03:30 GMT 47.924831 2.089938 37,025 200 451 0
2020-08-07 13:03:26 GMT 47.931862 2.093670 37,025 200 451 0
2020-08-07 13:03:23 GMT 47.944149 2.100149 37,025 200 451 0
2020-08-07 13:03:20 GMT 47.944149 2.100149 37,025 200 451 0
2020-08-07 13:03:16 GMT 47.952026 2.104294 37,025 200 451 64
2020-08-07 13:03:13 GMT 47.958069 2.107474 37,025 200 451 64
2020-08-07 13:03:10 GMT 47.969513 2.113564 37,000 200 451 64
2020-08-07 13:03:07 GMT 47.974873 2.116347 37,000 200 451 0
2020-08-07 13:03:01 GMT 47.990112 2.124413 37,000 200 451 0
2020-08-07 13:02:57 GMT 47.990112 2.124413 37,000 200 451 0
2020-08-07 13:02:54 GMT 47.995239 2.127090 37,000 200 451 0
2020-08-07 13:02:50 GMT 48.003983 2.131691 37,000 200 451 64
2020-08-07 13:02:46 GMT 48.011974 2.135925 37,000 200 451 0
2020-08-07 13:02:42 GMT 48.021473 2.140925 37,000 200 451 0
2020-08-07 13:02:39 GMT 48.026642 2.143639 37,000 200 451 0
2020-08-07 13:02:36 GMT 48.035568 2.148376 37,000 200 451 0
2020-08-07 13:02:33 GMT 48.035568 2.148376 37,000 200 451 64
2020-08-07 13:02:30 GMT 48.044403 2.152977 37,000 200 451 64
2020-08-07 13:02:27 GMT 48.049080 2.155433 37,000 200 451 0
2020-08-07 13:02:24 GMT 48.054932 2.158539 37,000 200 450 0
2020-08-07 13:02:21 GMT 48.060947 2.161771 37,000 200 450 0
2020-08-07 13:02:18 GMT 48.066071 2.164447 37,000 200 450 0
2020-08-07 13:02:14 GMT 48.074730 2.169025 37,000 200 450 0
2020-08-07 13:02:11 GMT 48.085876 2.174881 37,000 200 450 0
2020-08-07 13:02:08 GMT 48.085876 2.174881 37,000 200 450 0
2020-08-07 13:02:05 GMT 48.093769 2.179026 37,000 200 450 0
2020-08-07 13:02:02 GMT 48.096889 2.180716 37,000 200 450 0
2020-08-07 13:01:59 GMT 48.103546 2.184219 37,000 200 450 0
2020-08-07 13:01:56 GMT 48.109131 2.187172 37,000 200 449 0
2020-08-07 13:01:51 GMT 48.121281 2.193604 37,000 200 447 0
2020-08-07 13:01:46 GMT 48.135498 2.201180 37,000 200 449 0
2020-08-07 13:01:42 GMT 48.143906 2.205646 37,000 200 449 0
2020-08-07 13:01:39 GMT 48.143906 2.205646 37,000 200 449 0
2020-08-07 13:01:36 GMT 48.148911 2.208252 37,000 200 449 0
2020-08-07 13:01:32 GMT 48.161911 2.215154 37,000 200 449 0
2020-08-07 13:01:29 GMT 48.170486 2.219744 37,000 200 449 0
2020-08-07 13:01:23 GMT 48.180450 2.225084 37,000 200 449 0
2020-08-07 13:01:20 GMT 48.180450 2.225084 37,000 200 449 0
2020-08-07 13:01:14 GMT 48.193668 2.232176 37,000 200 449 0
2020-08-07 13:01:09 GMT 48.201324 2.236281 37,000 200 449 0
2020-08-07 13:01:06 GMT 48.208145 2.239943 37,025 200 449 0
2020-08-07 13:01:03 GMT 48.223526 2.248183 37,000 200 449 -64
2020-08-07 13:00:58 GMT 48.223526 2.248183 37,000 200 449 0
2020-08-07 13:00:55 GMT 48.228790 2.251000 37,000 200 449 -64
2020-08-07 13:00:50 GMT 48.239849 2.256968 37,000 200 449 -64
2020-08-07 13:00:47 GMT 48.252792 2.263834 37,000 200 449 -64
2020-08-07 13:00:43 GMT 48.252792 2.263834 37,025 200 448 0
2020-08-07 13:00:39 GMT 48.259415 2.267409 37,000 200 448 0
2020-08-07 13:00:36 GMT 48.265594 2.270719 37,000 200 448 0
2020-08-07 13:00:33 GMT 48.272251 2.274242 37,000 200 448 0
2020-08-07 13:00:30 GMT 48.283173 2.280086 37,000 200 448 0
2020-08-07 13:00:23 GMT 48.294983 2.286424 37,000 200 448 0
2020-08-07 13:00:17 GMT 48.303440 2.290939 37,000 200 448 0
2020-08-07 13:00:14 GMT 48.309219 2.294030 37,025 200 448 0
2020-08-07 13:00:11 GMT 48.317360 2.298383 37,025 200 448 0
2020-08-07 13:00:08 GMT 48.321503 2.300552 37,025 200 447 0
2020-08-07 13:00:05 GMT 48.326889 2.303396 37,025 200 447 0
2020-08-07 13:00:02 GMT 48.331970 2.306143 37,025 200 447 -64
2020-08-07 12:59:58 GMT 48.339935 2.310454 37,025 200 448 0
2020-08-07 12:59:55 GMT 48.346939 2.314171 37,025 200 448 0
2020-08-07 12:59:52 GMT 48.351948 2.316814 37,025 200 448 0
2020-08-07 12:59:49 GMT 48.360123 2.321284 37,025 200 448 0
2020-08-07 12:59:46 GMT 48.369370 2.326214 37,025 200 448 0
2020-08-07 12:59:43 GMT 48.375275 2.329454 37,025 200 448 0
2020-08-07 12:59:40 GMT 48.375275 2.329454 37,025 200 448 0
2020-08-07 12:59:37 GMT 48.388306 2.336474 37,025 200 448 0
2020-08-07 12:59:34 GMT 48.388306 2.336474 37,025 200 448 0
2020-08-07 12:59:31 GMT 48.397842 2.341567 37,025 200 448 0
2020-08-07 12:59:28 GMT 48.405533 2.345722 37,025 200 448 0
2020-08-07 12:59:25 GMT 48.405533 2.345722 37,000 200 448 0
2020-08-07 12:59:22 GMT 48.411861 2.349123 37,000 200 447 64
2020-08-07 12:59:17 GMT 48.425858 2.356567 37,000 200 448 64
2020-08-07 12:59:14 GMT 48.431225 2.359459 37,000 200 448 64
2020-08-07 12:59:11 GMT 48.431225 2.359459 37,000 200 448 64
2020-08-07 12:59:08 GMT 48.436996 2.362494 37,000 200 448 64
2020-08-07 12:59:05 GMT 48.445190 2.366831 37,000 200 448 64
2020-08-07 12:59:02 GMT 48.450027 2.369385 37,000 200 448 64
2020-08-07 12:58:59 GMT 48.463161 2.376227 37,000 200 448 0
2020-08-07 12:58:52 GMT 48.469166 2.379335 37,000 199 447 0
2020-08-07 12:58:49 GMT 48.474380 2.382009 37,000 199 448 0
2020-08-07 12:58:46 GMT 48.482483 2.386216 37,000 199 448 0
2020-08-07 12:58:43 GMT 48.488708 2.389386 37,000 199 448 0
2020-08-07 12:58:40 GMT 48.491882 2.390972 37,000 199 448 0
2020-08-07 12:58:37 GMT 48.500015 2.395090 37,000 199 448 64
2020-08-07 12:58:34 GMT 48.510460 2.400296 36,975 199 447 0
2020-08-07 12:58:28 GMT 48.522354 2.406288 36,975 199 447 64
2020-08-07 12:58:22 GMT 48.528259 2.409245 36,975 199 447 64
2020-08-07 12:58:19 GMT 48.534348 2.412274 36,975 199 448 0
2020-08-07 12:58:16 GMT 48.541122 2.415725 36,975 199 447 0
2020-08-07 12:58:13 GMT 48.547932 2.419161 36,975 199 447 0
2020-08-07 12:58:10 GMT 48.550873 2.420654 36,975 200 447 0
2020-08-07 12:58:07 GMT 48.559338 2.425015 36,975 200 446 0
2020-08-07 12:58:03 GMT 48.565567 2.428331 36,975 200 447 0
2020-08-07 12:58:00 GMT 48.571583 2.431520 36,975 201 447 -64
2020-08-07 12:57:57 GMT 48.577148 2.434598 36,975 201 446 0
2020-08-07 12:57:54 GMT 48.582138 2.437415 36,975 201 446 0
2020-08-07 12:57:51 GMT 48.587173 2.440373 36,975 202 446 -64
2020-08-07 12:57:48 GMT 48.594112 2.444458 36,975 203 445 0
2020-08-07 12:57:45 GMT 48.602585 2.449879 37,000 204 444 0
2020-08-07 12:57:42 GMT 48.606171 2.452192 36,975 205 444 0
2020-08-07 12:57:39 GMT 48.611431 2.455733 36,975 205 443 0
2020-08-07 12:57:36 GMT 48.622971 2.463684 36,975 205 443 0
2020-08-07 12:57:33 GMT 48.622971 2.463684 36,975 205 443 0
2020-08-07 12:57:30 GMT 48.628601 2.467487 36,975 205 443 0
2020-08-07 12:57:27 GMT 48.633636 2.470984 36,975 205 443 0
2020-08-07 12:57:24 GMT 48.640366 2.475586 36,975 205 443 0
2020-08-07 12:57:21 GMT 48.644714 2.478544 36,975 205 443 0
2020-08-07 12:57:18 GMT 48.652069 2.483633 36,975 205 443 0
2020-08-07 12:57:15 GMT 48.657982 2.487681 37,000 205 443 0
2020-08-07 12:57:12 GMT 48.660820 2.489632 36,975 205 443 0
2020-08-07 12:57:09 GMT 48.667877 2.494460 37,000 205 443 -64
2020-08-07 12:57:06 GMT 48.677444 2.501009 37,000 205 443 0
2020-08-07 12:57:00 GMT 48.683071 2.504883 37,000 205 443 0
2020-08-07 12:56:57 GMT 48.690216 2.509813 37,000 205 443 0
2020-08-07 12:56:54 GMT 48.697365 2.514713 37,000 205 443 0
2020-08-07 12:56:51 GMT 48.702251 2.518110 37,000 205 443 0
2020-08-07 12:56:48 GMT 48.705933 2.520567 37,000 205 443 0
2020-08-07 12:56:45 GMT 48.711868 2.524672 37,000 205 443 0
2020-08-07 12:56:42 GMT 48.717773 2.528757 37,000 205 443 0
2020-08-07 12:56:39 GMT 48.726555 2.534878 37,000 205 443 -64
2020-08-07 12:56:36 GMT 48.729263 2.536715 37,000 205 443 0
2020-08-07 12:56:33 GMT 48.736328 2.541600 37,000 205 443 0
2020-08-07 12:56:30 GMT 48.740334 2.544347 37,000 205 444 -64
2020-08-07 12:56:27 GMT 48.745918 2.548250 37,000 205 444 -64
2020-08-07 12:56:24 GMT 48.751411 2.552008 37,000 205 444 0
2020-08-07 12:56:21 GMT 48.756950 2.555839 37,000 205 444 0
2020-08-07 12:56:18 GMT 48.762630 2.559814 37,000 205 444 0
2020-08-07 12:56:15 GMT 48.769089 2.564251 37,000 205 444 0
2020-08-07 12:56:12 GMT 48.774734 2.568199 37,000 205 444 0
2020-08-07 12:56:09 GMT 48.786095 2.576077 37,000 205 444 0
2020-08-07 12:56:06 GMT 48.786095 2.576077 37,000 205 444 0
2020-08-07 12:56:03 GMT 48.792389 2.580449 37,000 205 445 0
2020-08-07 12:55:59 GMT 48.798798 2.584886 37,000 205 445 0
2020-08-07 12:55:56 GMT 48.803551 2.588148 37,000 205 445 0
2020-08-07 12:55:53 GMT 48.809418 2.592210 37,000 205 445 0
2020-08-07 12:55:50 GMT 48.815235 2.596243 37,000 205 445 0
2020-08-07 12:55:47 GMT 48.820953 2.600239 37,000 205 446 0
2020-08-07 12:55:44 GMT 48.826492 2.604041 37,000 205 446 0
2020-08-07 12:55:41 GMT 48.833130 2.608619 37,000 205 446 0
2020-08-07 12:55:38 GMT 48.837814 2.611855 37,000 205 446 0
2020-08-07 12:55:35 GMT 48.846237 2.617637 37,000 205 445 0
2020-08-07 12:55:32 GMT 48.848846 2.619444 37,000 205 445 0
2020-08-07 12:55:29 GMT 48.856293 2.624606 37,000 205 445 0
2020-08-07 12:55:26 GMT 48.859367 2.626744 37,000 205 445 0
2020-08-07 12:55:23 GMT 48.870632 2.634478 37,000 205 446 -64
2020-08-07 12:55:20 GMT 48.876617 2.638620 37,000 205 447 0
2020-08-07 12:55:17 GMT 48.876617 2.638620 37,000 205 446 0
2020-08-07 12:55:14 GMT 48.883060 2.643079 37,000 205 446 0
2020-08-07 12:55:11 GMT 48.888565 2.646860 37,000 205 446 0
2020-08-07 12:55:08 GMT 48.895248 2.651508 37,000 205 446 0
2020-08-07 12:55:05 GMT 48.901062 2.655522 37,000 205 446 0
2020-08-07 12:55:02 GMT 48.906601 2.659396 37,000 205 446 0
2020-08-07 12:54:59 GMT 48.909164 2.661156 37,000 205 446 0
2020-08-07 12:54:56 GMT 48.916718 2.666425 37,000 205 446 0
2020-08-07 12:54:53 GMT 48.922443 2.670401 37,000 205 447 0
2020-08-07 12:54:49 GMT 48.931549 2.676720 37,000 205 447 0
2020-08-07 12:54:46 GMT 48.942764 2.684537 37,000 205 447 0
2020-08-07 12:54:42 GMT 48.942764 2.684537 37,000 205 447 0
2020-08-07 12:54:39 GMT 48.953384 2.691932 37,000 205 447 0
2020-08-07 12:54:33 GMT 48.960297 2.696791 37,000 205 447 0
2020-08-07 12:54:30 GMT 48.965366 2.700324 37,000 205 447 0
2020-08-07 12:54:27 GMT 48.969975 2.703576 37,000 205 447 0
2020-08-07 12:54:24 GMT 48.981937 2.711888 37,000 205 447 0
2020-08-07 12:54:18 GMT 48.993073 2.719680 37,000 205 448 0
2020-08-07 12:54:15 GMT 48.998978 2.723814 37,000 205 448 0
2020-08-07 12:54:12 GMT 48.998978 2.723814 37,000 205 448 0
2020-08-07 12:54:09 GMT 49.004700 2.727779 37,000 205 448 0
2020-08-07 12:54:06 GMT 49.010197 2.731620 37,000 205 448 0
2020-08-07 12:54:03 GMT 49.015869 2.735525 37,000 205 448 0
2020-08-07 12:54:00 GMT 49.022644 2.740244 37,000 205 448 0
2020-08-07 12:53:57 GMT 49.034542 2.748534 37,000 205 448 0
2020-08-07 12:53:54 GMT 49.040131 2.752427 37,000 205 448 0
2020-08-07 12:53:51 GMT 49.040131 2.752427 37,000 205 448 0
2020-08-07 12:53:48 GMT 49.049835 2.759188 37,000 205 447 0
2020-08-07 12:53:45 GMT 49.049835 2.759188 37,000 205 448 0
2020-08-07 12:53:42 GMT 49.057526 2.764540 37,000 205 447 -64
2020-08-07 12:53:39 GMT 49.061646 2.767428 37,000 205 447 -64
2020-08-07 12:53:36 GMT 49.065826 2.770362 37,000 205 447 -64
2020-08-07 12:53:33 GMT 49.078445 2.779118 37,000 205 447 0
2020-08-07 12:53:27 GMT 49.088745 2.786231 37,000 205 447 -64
2020-08-07 12:53:24 GMT 49.088745 2.786231 37,000 205 447 0
2020-08-07 12:53:21 GMT 49.097157 2.792117 37,000 205 447 0
2020-08-07 12:53:18 GMT 49.099960 2.794049 37,000 205 447 0
2020-08-07 12:53:15 GMT 49.106689 2.798697 37,000 205 446 0
2020-08-07 12:53:12 GMT 49.113373 2.803274 37,000 205 447 0
2020-08-07 12:53:09 GMT 49.117401 2.806091 37,000 205 447 0
2020-08-07 12:53:06 GMT 49.123085 2.809970 37,000 205 447 0
2020-08-07 12:53:03 GMT 49.128479 2.813697 37,000 205 447 0
2020-08-07 12:53:00 GMT 49.135025 2.818275 37,000 205 447 0
2020-08-07 12:52:57 GMT 49.142033 2.823053 37,000 205 448 64
2020-08-07 12:52:54 GMT 49.147522 2.826867 37,000 205 448 64
2020-08-07 12:52:51 GMT 49.151993 2.829991 37,000 205 449 64
2020-08-07 12:52:48 GMT 49.156494 2.833064 37,000 205 449 64
2020-08-07 12:52:45 GMT 49.162514 2.837292 37,000 205 450 -64
2020-08-07 12:52:42 GMT 49.168102 2.841195 36,975 205 450 -64
2020-08-07 12:52:39 GMT 49.174248 2.845531 37,000 206 449 64
2020-08-07 12:52:36 GMT 49.179840 2.849473 37,000 206 449 64
2020-08-07 12:52:32 GMT 49.187439 2.854966 36,925 206 448 384
2020-08-07 12:52:29 GMT 49.193333 2.859192 36,975 206 448 384
2020-08-07 12:52:26 GMT 49.208138 2.870034 36,925 207 447 1024
2020-08-07 12:52:22 GMT 49.208138 2.870034 36,900 206 447 1024
2020-08-07 12:52:19 GMT 49.211765 2.872780 36,825 206 447 1088
2020-08-07 12:52:16 GMT 49.217728 2.877189 36,700 207 447 1024
2020-08-07 12:52:11 GMT 49.227222 2.884345 36,750 207 447 1024
2020-08-07 12:52:08 GMT 49.232849 2.888489 36,675 207 447 1088
2020-08-07 12:52:05 GMT 49.238487 2.892729 36,625 207 447 1088
2020-08-07 12:52:01 GMT 49.246033 2.898348 36,525 207 448 1088
2020-08-07 12:51:57 GMT 49.253201 2.903715 36,500 206 448 1088
2020-08-07 12:51:54 GMT 49.258026 2.907292 36,450 206 449 1216
2020-08-07 12:51:51 GMT 49.263767 2.911522 36,375 206 449 1216
2020-08-07 12:51:48 GMT 49.268417 2.914969 36,325 206 449 1152
2020-08-07 12:51:45 GMT 49.273865 2.919053 36,275 206 449 1088
2020-08-07 12:51:42 GMT 49.280319 2.923772 36,225 206 449 896
2020-08-07 12:51:39 GMT 49.286819 2.928631 36,150 206 449 896
2020-08-07 12:51:36 GMT 49.298355 2.937082 35,975 206 449 896
2020-08-07 12:51:33 GMT 49.298355 2.937082 36,025 206 449 960
2020-08-07 12:51:30 GMT 49.303242 2.940650 35,950 206 449 960
2020-08-07 12:51:26 GMT 49.312508 2.947444 35,950 206 449 1024
2020-08-07 12:51:23 GMT 49.322067 2.954407 35,900 206 449 1088
2020-08-07 12:51:20 GMT 49.322067 2.954407 35,850 206 448 1088
2020-08-07 12:51:17 GMT 49.329453 2.959804 35,775 206 449 1024
2020-08-07 12:51:14 GMT 49.332779 2.962224 35,775 206 449 1024
2020-08-07 12:51:11 GMT 49.338573 2.966453 35,600 206 449 1088
2020-08-07 12:51:08 GMT 49.345280 2.971368 35,700 206 449 1024
2020-08-07 12:51:05 GMT 49.351891 2.976138 35,650 206 449 1024
2020-08-07 12:51:02 GMT 49.355942 2.979126 35,600 206 449 1088
2020-08-07 12:50:59 GMT 49.361759 2.983366 35,200 206 448 1152
2020-08-07 12:50:53 GMT 49.371552 2.990535 35,425 206 449 1344
2020-08-07 12:50:50 GMT 49.379608 2.996380 35,300 206 450 1600
2020-08-07 12:50:47 GMT 49.384232 2.999831 34,225 206 455 1536
2020-08-07 12:50:44 GMT 49.391365 3.004978 35,150 206 450 1664
2020-08-07 12:50:41 GMT 49.396858 3.009025 35,100 206 451 1664
2020-08-07 12:50:38 GMT 49.401051 3.012061 35,000 206 451 1728
2020-08-07 12:50:35 GMT 49.406635 3.016181 34,925 206 455 1600
2020-08-07 12:50:32 GMT 49.411850 3.020012 34,800 206 453 1664
2020-08-07 12:50:29 GMT 49.418243 3.024691 34,775 206 453 1664
2020-08-07 12:50:26 GMT 49.423206 3.028324 34,675 206 455 1600
2020-08-07 12:50:22 GMT 49.430889 3.033934 34,175 206 455 1600
2020-08-07 12:50:19 GMT 49.437778 3.038982 34,525 206 455 1536
2020-08-07 12:50:16 GMT 49.442806 3.042693 34,450 206 456 1536
2020-08-07 12:50:12 GMT 49.455734 3.052103 34,225 206 457 1408
2020-08-07 12:50:09 GMT 49.455734 3.052103 34,250 206 457 1408
2020-08-07 12:50:06 GMT 49.460823 3.055832 34,200 206 457 1344
2020-08-07 12:50:03 GMT 49.468502 3.061474 34,000 206 458 1344
2020-08-07 12:50:00 GMT 49.474274 3.065631 33,925 205 457 1088
2020-08-07 12:49:57 GMT 49.478989 3.069016 34,025 206 458 1344
2020-08-07 12:49:54 GMT 49.483913 3.072609 33,925 206 457 1280
2020-08-07 12:49:51 GMT 49.489471 3.076678 33,900 206 457 1216
2020-08-07 12:49:48 GMT 49.496342 3.081591 33,850 206 458 1152
2020-08-07 12:49:45 GMT 49.501190 3.085134 33,800 206 458 1152
2020-08-07 12:49:42 GMT 49.507782 3.089905 33,650 206 458 1088
2020-08-07 12:49:38 GMT 49.515335 3.095253 33,650 205 457 1152
2020-08-07 12:49:35 GMT 49.521103 3.099373 33,600 205 457 1216
2020-08-07 12:49:31 GMT 49.528748 3.104866 33,525 205 457 1216
2020-08-07 12:49:28 GMT 49.533722 3.108389 33,475 205 457 1344
2020-08-07 12:49:25 GMT 49.539963 3.112817 33,200 205 457 1408
2020-08-07 12:49:22 GMT 49.548203 3.118672 33,300 205 457 1536
2020-08-07 12:49:19 GMT 49.552277 3.121563 33,200 205 457 1600
2020-08-07 12:49:15 GMT 49.560165 3.127169 33,100 205 458 1600
2020-08-07 12:49:11 GMT 49.569847 3.134073 32,975 205 458 1600
2020-08-07 12:49:05 GMT 49.577808 3.139714 32,850 205 459 1536
2020-08-07 12:49:02 GMT 49.583862 3.143969 32,775 206 459 1472
2020-08-07 12:48:59 GMT 49.588760 3.147511 32,775 206 459 1472
2020-08-07 12:48:56 GMT 49.594711 3.151775 32,725 206 459 1408
2020-08-07 12:48:53 GMT 49.600666 3.156045 32,650 206 459 1344
2020-08-07 12:48:50 GMT 49.608536 3.161750 32,550 206 459 1216
2020-08-07 12:48:47 GMT 49.614071 3.165696 32,475 206 459 1088
2020-08-07 12:48:44 GMT 49.617748 3.168368 31,900 206 459 1088
2020-08-07 12:48:41 GMT 49.623871 3.172808 32,400 206 458 960
2020-08-07 12:48:38 GMT 49.630600 3.177651 32,325 211 461 1600
2020-08-07 12:48:35 GMT 49.636929 3.182249 32,300 206 457 832
2020-08-07 12:48:31 GMT 49.643631 3.187149 32,225 206 456 896
2020-08-07 12:48:28 GMT 49.649590 3.191454 32,225 206 456 896
2020-08-07 12:48:25 GMT 49.654266 3.194781 32,150 206 454 960
2020-08-07 12:48:22 GMT 49.667187 3.204148 31,900 206 453 1280
2020-08-07 12:48:19 GMT 49.667187 3.204148 32,050 205 454 1024
2020-08-07 12:48:16 GMT 49.672775 3.208156 32,000 206 453 1344
2020-08-07 12:48:13 GMT 49.676872 3.211126 31,975 206 453 1472
2020-08-07 12:48:09 GMT 49.685806 3.217549 31,775 206 454 2048
2020-08-07 12:48:06 GMT 49.692810 3.222680 31,750 206 454 2048
2020-08-07 12:48:03 GMT 49.702698 3.229836 31,450 206 455 2048
2020-08-07 12:48:00 GMT 49.702698 3.229836 31,475 206 455 -64
2020-08-07 12:47:57 GMT 49.714508 3.238437 31,300 206 457 1088
2020-08-07 12:47:54 GMT 49.720257 3.242600 31,275 206 456 0
2020-08-07 12:47:51 GMT 49.720257 3.242600 31,275 206 457 1280
2020-08-07 12:47:48 GMT 49.731674 3.250869 31,200 206 457 960
2020-08-07 12:47:42 GMT 49.738319 3.255739 31,125 206 456 512
2020-08-07 12:47:39 GMT 49.749023 3.263518 31,075 206 456 512
2020-08-07 12:47:36 GMT 49.749023 3.263518 31,075 206 455 512
2020-08-07 12:47:32 GMT 49.756706 3.269175 31,050 206 455 192
2020-08-07 12:47:29 GMT 49.767788 3.277192 31,025 206 456 -64
2020-08-07 12:47:26 GMT 49.767788 3.277192 31,025 206 456 -64
2020-08-07 12:47:23 GMT 49.773422 3.281298 30,875 211 461 1408
2020-08-07 12:47:20 GMT 49.779472 3.285729 31,025 211 461 1216
2020-08-07 12:47:17 GMT 49.785709 3.290257 31,025 206 457 64
2020-08-07 12:47:14 GMT 49.792282 3.295031 31,025 206 457 64
2020-08-07 12:47:11 GMT 49.798920 3.299874 31,000 206 459 320
2020-08-07 12:47:07 GMT 49.804779 3.304138 31,000 206 459 384
2020-08-07 12:47:04 GMT 49.809544 3.307627 30,475 211 462 1664
2020-08-07 12:47:00 GMT 49.819931 3.315558 30,925 209 462 576
2020-08-07 12:46:56 GMT 49.826534 3.320989 30,900 210 462 832
2020-08-07 12:46:52 GMT 49.832214 3.325888 29,875 211 463 1664
2020-08-07 12:46:48 GMT 49.839706 3.332688 30,825 211 461 1408
2020-08-07 12:46:44 GMT 49.849136 3.341434 30,700 211 462 1728
2020-08-07 12:46:38 GMT 49.858147 3.349717 30,600 211 462 1792
2020-08-07 12:46:35 GMT 49.863510 3.354661 30,525 211 462 1664
2020-08-07 12:46:32 GMT 49.869316 3.360035 30,350 211 463 1600
2020-08-07 12:46:29 GMT 49.876511 3.366659 29,650 211 463 1600
2020-08-07 12:46:26 GMT 49.880035 3.369984 30,225 211 464 1600
2020-08-07 12:46:23 GMT 49.887424 3.376811 30,100 211 463 1664
2020-08-07 12:46:20 GMT 49.891243 3.380374 30,075 211 463 1664
2020-08-07 12:46:16 GMT 49.904510 3.392623 29,900 211 463 1344
2020-08-07 12:46:09 GMT 49.911896 3.399473 29,800 211 463 1024
2020-08-07 12:46:06 GMT 49.917545 3.404722 29,750 211 462 768
2020-08-07 12:46:03 GMT 49.922386 3.409251 29,725 211 461 640
2020-08-07 12:46:00 GMT 49.928238 3.414652 29,675 211 461 640
2020-08-07 12:45:57 GMT 49.933186 3.419198 29,650 211 460 640
2020-08-07 12:45:54 GMT 49.944454 3.429664 29,600 211 460 640
2020-08-07 12:45:51 GMT 49.944454 3.429664 29,550 211 457 832
2020-08-07 12:45:48 GMT 49.950272 3.435083 29,225 211 457 1408
2020-08-07 12:45:45 GMT 49.956604 3.440948 29,475 211 457 1472
2020-08-07 12:45:42 GMT 49.961929 3.445876 29,450 211 457 1344
2020-08-07 12:45:39 GMT 49.967495 3.451043 29,150 211 457 1920
2020-08-07 12:45:36 GMT 49.972961 3.456140 29,250 211 457 2048
2020-08-07 12:45:32 GMT 49.983719 3.466114 28,825 212 463 2240
2020-08-07 12:45:29 GMT 49.983719 3.466114 28,600 213 469 1472
2020-08-07 12:45:26 GMT 49.990265 3.472258 28,925 212 459 2112
2020-08-07 12:45:23 GMT 49.995712 3.477317 28,850 212 459 2048
2020-08-07 12:45:20 GMT 50.001759 3.482963 28,775 212 461 2112
2020-08-07 12:45:17 GMT 50.006413 3.487343 28,650 212 464 2368
2020-08-07 12:45:14 GMT 50.011814 3.492390 28,525 212 463 2240
2020-08-07 12:45:10 GMT 50.021126 3.501150 27,925 212 466 2432
2020-08-07 12:45:06 GMT 50.026474 3.506157 28,225 212 464 2368
2020-08-07 12:45:03 GMT 50.033203 3.512517 27,900 212 466 2432
2020-08-07 12:44:59 GMT 50.039791 3.518817 27,900 212 466 2368
2020-08-07 12:44:55 GMT 50.050175 3.528690 27,775 212 468 2304
2020-08-07 12:44:52 GMT 50.052567 3.531020 27,725 212 469 1728
2020-08-07 12:44:49 GMT 50.056969 3.535222 27,600 212 469 1792
2020-08-07 12:44:46 GMT 50.063534 3.541532 27,575 212 469 1728
2020-08-07 12:44:43 GMT 50.069260 3.547025 27,375 212 470 1472
2020-08-07 12:44:40 GMT 50.074940 3.552593 27,400 212 470 1472
2020-08-07 12:44:37 GMT 50.080627 3.558125 27,225 213 470 1408
2020-08-07 12:44:34 GMT 50.087276 3.564618 27,175 213 469 1472
2020-08-07 12:44:31 GMT 50.092442 3.569666 27,100 213 469 1472
2020-08-07 12:44:28 GMT 50.096924 3.574098 26,950 213 469 1536
2020-08-07 12:44:24 GMT 50.103802 3.580875 27,025 213 469 1472
2020-08-07 12:44:21 GMT 50.110062 3.587108 26,900 213 468 1280
2020-08-07 12:44:18 GMT 50.115280 3.592240 26,850 213 468 1280
2020-08-07 12:44:15 GMT 50.120590 3.597517 26,775 213 468 1216
2020-08-07 12:44:12 GMT 50.126427 3.603219 26,750 213 467 1216
2020-08-07 12:44:08 GMT 50.131824 3.608563 26,425 213 467 1472
2020-08-07 12:44:05 GMT 50.140392 3.616952 26,575 212 466 1536
2020-08-07 12:44:02 GMT 50.146164 3.622519 26,325 212 467 1536
2020-08-07 12:43:59 GMT 50.149658 3.625850 26,450 212 466 1408
2020-08-07 12:43:56 GMT 50.155472 3.631415 26,400 211 466 1408
2020-08-07 12:43:53 GMT 50.162270 3.637737 26,125 210 466 1472
2020-08-07 12:43:49 GMT 50.168381 3.643341 26,200 210 466 1472
2020-08-07 12:43:46 GMT 50.173119 3.647535 26,100 209 466 1472
2020-08-07 12:43:43 GMT 50.178936 3.652583 26,025 208 465 1280
2020-08-07 12:43:40 GMT 50.185223 3.657853 25,925 208 451 768
2020-08-07 12:43:37 GMT 50.198364 3.668422 25,825 208 464 1280
2020-08-07 12:43:34 GMT 50.205231 3.673915 25,750 208 464 1344
2020-08-07 12:43:30 GMT 50.205231 3.673915 25,775 208 464 1344
2020-08-07 12:43:27 GMT 50.209946 3.677746 25,750 208 463 1344
2020-08-07 12:43:24 GMT 50.221252 3.686853 25,600 208 462 1408
2020-08-07 12:43:21 GMT 50.228943 3.692996 25,550 208 462 1408
2020-08-07 12:43:15 GMT 50.232834 3.696177 25,400 208 462 1344
2020-08-07 12:43:12 GMT 50.245739 3.706550 25,400 208 461 1344
2020-08-07 12:43:08 GMT 50.245739 3.706550 25,350 208 461 1344
2020-08-07 12:43:05 GMT 50.253479 3.712801 25,250 208 461 1280
2020-08-07 12:43:02 GMT 50.258308 3.716645 24,775 208 455 1664
2020-08-07 12:42:59 GMT 50.263184 3.720607 24,975 208 455 1344
2020-08-07 12:42:56 GMT 50.268131 3.724588 24,775 208 455 1344
2020-08-07 12:42:53 GMT 50.279396 3.733644 25,000 208 457 896
2020-08-07 12:42:47 GMT 50.285065 3.738170 24,950 208 456 1024
2020-08-07 12:42:44 GMT 50.292431 3.744111 24,775 208 455 1664
2020-08-07 12:42:40 GMT 50.298660 3.749084 24,800 208 455 1600
2020-08-07 12:42:37 GMT 50.305607 3.754726 24,725 208 455 1664
2020-08-07 12:42:33 GMT 50.314125 3.761555 24,600 208 454 1792
2020-08-07 12:42:30 GMT 50.317841 3.764552 23,450 208 445 1344
2020-08-07 12:42:24 GMT 50.334824 3.778213 23,000 208 454 1920
2020-08-07 12:42:21 GMT 50.334824 3.778213 24,100 208 454 1920
2020-08-07 12:42:17 GMT 50.341278 3.783417 24,175 208 454 1920
2020-08-07 12:42:14 GMT 50.349224 3.789838 24,050 208 454 1856
2020-08-07 12:42:10 GMT 50.359863 3.798451 23,675 208 454 1728
2020-08-07 12:42:03 GMT 50.369385 3.806112 23,750 208 454 1472
2020-08-07 12:42:00 GMT 50.374924 3.810593 23,725 208 453 1216
2020-08-07 12:41:57 GMT 50.379158 3.814037 23,525 208 451 768
2020-08-07 12:41:54 GMT 50.384697 3.818491 23,525 208 446 960
2020-08-07 12:41:51 GMT 50.399921 3.830814 23,550 208 448 832
2020-08-07 12:41:46 GMT 50.399921 3.830814 23,525 208 448 896
2020-08-07 12:41:42 GMT 50.405880 3.835639 23,475 208 445 1472
2020-08-07 12:41:39 GMT 50.412460 3.840950 22,900 208 443 2048
2020-08-07 12:41:36 GMT 50.425011 3.851153 23,200 208 443 2176
2020-08-07 12:41:32 GMT 50.425011 3.851153 23,100 208 444 1856
2020-08-07 12:41:29 GMT 50.432373 3.857141 23,050 208 443 1920
2020-08-07 12:41:26 GMT 50.435112 3.859319 23,025 208 444 1856
2020-08-07 12:41:23 GMT 50.441254 3.864369 22,900 208 441 1280
2020-08-07 12:41:20 GMT 50.447636 3.869563 22,850 208 443 1536
2020-08-07 12:41:17 GMT 50.452927 3.873837 22,800 208 441 1280
2020-08-07 12:41:13 GMT 50.459564 3.879330 22,675 208 441 1280
2020-08-07 12:41:10 GMT 50.466843 3.885257 22,575 208 439 1472
2020-08-07 12:41:07 GMT 50.470402 3.888195 22,550 208 439 1472
2020-08-07 12:41:04 GMT 50.477463 3.894003 22,475 208 437 1600
2020-08-07 12:41:01 GMT 50.480988 3.896894 22,350 208 437 1664
2020-08-07 12:40:58 GMT 50.486298 3.901231 22,200 208 436 1664
2020-08-07 12:40:55 GMT 50.490921 3.905061 22,275 208 436 1664
2020-08-07 12:40:52 GMT 50.496468 3.909648 22,175 208 435 1728
2020-08-07 12:40:49 GMT 50.502380 3.914547 22,100 208 434 1664
2020-08-07 12:40:46 GMT 50.507034 3.918361 22,075 208 434 1664
2020-08-07 12:40:43 GMT 50.514313 3.924432 21,900 208 433 1792
2020-08-07 12:40:39 GMT 50.520676 3.929691 21,800 208 432 1856
2020-08-07 12:40:36 GMT 50.525986 3.934117 21,725 208 432 1920
2020-08-07 12:40:33 GMT 50.531059 3.938302 21,625 208 431 1984
2020-08-07 12:40:30 GMT 50.536411 3.942756 21,550 208 430 1984
2020-08-07 12:40:27 GMT 50.541824 3.947200 21,450 208 430 1984
2020-08-07 12:40:24 GMT 50.547352 3.951812 21,400 208 430 1984
2020-08-07 12:40:21 GMT 50.553543 3.956885 21,175 208 429 1984
2020-08-07 12:40:18 GMT 50.558895 3.961314 21,075 208 429 2048
2020-08-07 12:40:11 GMT 50.570892 3.971196 20,950 208 429 2176
2020-08-07 12:40:08 GMT 50.575607 3.975027 20,750 208 428 2240
2020-08-07 12:40:05 GMT 50.580032 3.978684 20,725 208 429 2176
2020-08-07 12:40:02 GMT 50.587570 3.985068 20,650 210 429 1856
2020-08-07 12:39:59 GMT 50.592552 3.989596 20,475 213 426 1600
2020-08-07 12:39:56 GMT 50.604309 4.001553 20,300 216 423 1536
2020-08-07 12:39:51 GMT 50.604309 4.001553 20,275 221 419 2176
2020-08-07 12:39:48 GMT 50.608616 4.006447 20,250 217 423 1536
2020-08-07 12:39:45 GMT 50.613548 4.012162 20,050 236 418 2112
2020-08-07 12:39:42 GMT 50.618855 4.018769 20,075 220 420 2112
2020-08-07 12:39:38 GMT 50.625931 4.027825 19,925 220 420 2176
2020-08-07 12:39:35 GMT 50.628342 4.030971 19,875 221 419 2176
2020-08-07 12:39:32 GMT 50.632278 4.036319 19,725 224 419 2240
2020-08-07 12:39:29 GMT 50.637383 4.043934 19,225 230 418 2368
2020-08-07 12:39:25 GMT 50.642921 4.053287 19,275 232 417 2304
2020-08-07 12:39:21 GMT 50.648529 4.064002 19,300 238 417 1920
2020-08-07 12:39:18 GMT 50.651348 4.070212 19,200 238 417 1920
2020-08-07 12:39:15 GMT 50.654514 4.077709 19,125 241 416 1664
2020-08-07 12:39:08 GMT 50.661667 4.097539 18,925 243 414 1728
2020-08-07 12:39:05 GMT 50.663918 4.104359 18,875 243 413 1728
2020-08-07 12:39:02 GMT 50.666977 4.113729 18,725 243 412 1856
2020-08-07 12:38:59 GMT 50.669643 4.121877 18,675 243 411 1856
2020-08-07 12:38:56 GMT 50.672157 4.129715 18,550 243 410 1728
2020-08-07 12:38:53 GMT 50.674671 4.137344 18,350 243 407 2240
2020-08-07 12:38:50 GMT 50.676811 4.143982 18,375 243 407 2240
2020-08-07 12:38:47 GMT 50.679520 4.152312 18,300 243 407 2368
2020-08-07 12:38:44 GMT 50.681259 4.157583 18,175 243 407 2432
2020-08-07 12:38:41 GMT 50.685333 4.170202 18,075 243 407 2368
2020-08-07 12:38:38 GMT 50.686867 4.174805 18,075 243 407 2432
2020-08-07 12:38:35 GMT 50.689499 4.182970 17,900 243 407 2432
2020-08-07 12:38:32 GMT 50.694828 4.199295 17,500 243 402 1856
2020-08-07 12:38:29 GMT 50.694828 4.199295 17,575 243 406 2496
2020-08-07 12:38:26 GMT 50.698505 4.210587 17,500 243 406 2560
2020-08-07 12:38:23 GMT 50.700600 4.216995 17,400 243 406 2496
2020-08-07 12:38:20 GMT 50.703300 4.225388 17,275 243 406 2432
2020-08-07 12:38:17 GMT 50.705910 4.233322 17,125 243 405 2048
2020-08-07 12:38:14 GMT 50.710281 4.246810 17,000 243 405 1920
2020-08-07 12:38:11 GMT 50.710281 4.246810 16,925 243 404 1856
2020-08-07 12:38:08 GMT 50.713730 4.257355 16,850 243 402 1792
2020-08-07 12:38:05 GMT 50.715824 4.263763 16,825 243 402 1792
2020-08-07 12:38:02 GMT 50.717827 4.270020 16,725 243 400 2176
2020-08-07 12:37:58 GMT 50.723877 4.288676 16,525 243 400 2176
2020-08-07 12:37:55 GMT 50.723877 4.288676 16,125 243 398 2112
2020-08-07 12:37:51 GMT 50.727879 4.301071 16,325 243 398 2112
2020-08-07 12:37:48 GMT 50.730194 4.308125 16,225 244 398 2048
2020-08-07 12:37:44 GMT 50.734955 4.322897 15,725 244 394 2112
2020-08-07 12:37:41 GMT 50.737751 4.331589 15,950 244 394 2048
2020-08-07 12:37:38 GMT 50.741135 4.341975 15,825 243 394 2112
2020-08-07 12:37:35 GMT 50.741135 4.341975 15,750 243 394 2176
2020-08-07 12:37:32 GMT 50.742870 4.347305 15,675 244 392 2496
2020-08-07 12:37:29 GMT 50.745438 4.355337 15,050 243 393 3136
2020-08-07 12:37:26 GMT 50.748138 4.363651 15,525 244 392 2688
2020-08-07 12:37:23 GMT 50.750690 4.371643 15,350 244 392 3008
2020-08-07 12:37:20 GMT 50.755371 4.386069 15,075 243 393 3136
2020-08-07 12:37:17 GMT 50.758438 4.395496 15,000 243 394 3200
2020-08-07 12:37:14 GMT 50.758438 4.395496 14,875 243 394 3136
2020-08-07 12:37:11 GMT 50.760094 4.400635 14,550 243 394 2944
2020-08-07 12:37:07 GMT 50.763306 4.410477 14,550 243 394 2944
2020-08-07 12:37:04 GMT 50.768707 4.427185 14,350 243 394 2880
2020-08-07 12:37:01 GMT 50.768707 4.427185 14,225 243 394 2688
2020-08-07 12:36:57 GMT 50.772106 4.437637 14,000 243 394 2688
2020-08-07 12:36:54 GMT 50.774597 4.445380 13,975 244 393 2560
2020-08-07 12:36:51 GMT 50.776669 4.451675 13,850 243 394 2624
2020-08-07 12:36:47 GMT 50.780365 4.463270 13,650 244 392 2368
2020-08-07 12:36:44 GMT 50.784813 4.476929 13,575 244 391 2432
2020-08-07 12:36:41 GMT 50.784813 4.476929 13,425 244 389 2368
2020-08-07 12:36:38 GMT 50.787781 4.486208 13,125 244 389 2368
2020-08-07 12:36:35 GMT 50.790447 4.494476 13,225 244 389 2368
2020-08-07 12:36:32 GMT 50.792908 4.502093 13,175 244 387 2368
2020-08-07 12:36:29 GMT 50.796032 4.511871 12,975 244 386 2432
2020-08-07 12:36:26 GMT 50.797256 4.515604 12,150 244 385 2880
2020-08-07 12:36:23 GMT 50.799664 4.523163 12,750 244 385 2880
2020-08-07 12:36:20 GMT 50.802567 4.532232 12,625 244 384 2880
2020-08-07 12:36:16 GMT 50.805576 4.541626 12,450 244 384 3008
2020-08-07 12:36:13 GMT 50.808090 4.549484 12,300 244 384 3072
2020-08-07 12:36:10 GMT 50.810532 4.557173 11,400 244 383 3200
2020-08-07 12:36:07 GMT 50.812134 4.562221 11,950 244 383 3328
2020-08-07 12:36:04 GMT 50.814972 4.571129 11,925 244 383 3392
2020-08-07 12:36:01 GMT 50.817448 4.578934 11,700 244 384 3008
2020-08-07 12:35:58 GMT 50.820099 4.587250 11,525 244 383 2368
2020-08-07 12:35:54 GMT 50.825359 4.604034 11,125 244 382 2240
2020-08-07 12:35:51 GMT 50.827744 4.611660 11,225 244 381 1856
2020-08-07 12:35:44 GMT 50.833740 4.631034 10,975 244 376 1472
2020-08-07 12:35:37 GMT 50.839329 4.649200 10,875 245 372 960
2020-08-07 12:35:34 GMT 50.839329 4.649200 10,825 245 365 960
2020-08-07 12:35:31 GMT 50.840721 4.653702 10,800 245 364 1024
2020-08-07 12:35:28 GMT 50.842941 4.660875 10,775 245 360 960
2020-08-07 12:35:24 GMT 50.845505 4.669189 10,650 245 355 960
2020-08-07 12:35:21 GMT 50.848114 4.677800 10,625 245 347 896
2020-08-07 12:35:18 GMT 50.852875 4.693375 10,600 245 343 960
2020-08-07 12:35:14 GMT 50.852875 4.693375 10,575 245 341 960
2020-08-07 12:35:10 GMT 50.857529 4.708710 10,475 245 331 1024
2020-08-07 12:35:07 GMT 50.857529 4.708710 10,425 244 317 1280
2020-08-07 12:35:04 GMT 50.859558 4.715362 10,400 245 326 1216
2020-08-07 12:35:01 GMT 50.861481 4.721597 10,325 244 319 1280
2020-08-07 12:34:58 GMT 50.864136 4.730060 10,250 244 316 1280
2020-08-07 12:34:54 GMT 50.866470 4.737557 10,175 244 313 1344
2020-08-07 12:34:50 GMT 50.868713 4.744386 10,050 239 300 0
2020-08-07 12:34:47 GMT 50.870728 4.750548 9,975 242 303 1920
2020-08-07 12:34:43 GMT 50.873749 4.759233 9,875 215 288 2560
2020-08-07 12:34:37 GMT 50.880478 4.774094 9,700 197 285 3648
2020-08-07 12:34:34 GMT 50.880478 4.774094 9,550 221 290 2176
2020-08-07 12:34:31 GMT 50.885101 4.780686 9,525 209 286 3008
2020-08-07 12:34:27 GMT 50.890594 4.786550 9,350 210 286 2816
2020-08-07 12:34:21 GMT 50.899937 4.792938 8,950 198 285 3456
2020-08-07 12:34:18 GMT 50.899937 4.792938 8,900 195 285 3776
2020-08-07 12:34:15 GMT 50.902451 4.794006 8,625 185 285 3904
2020-08-07 12:34:12 GMT 50.906570 4.795235 8,575 187 285 3968
2020-08-07 12:34:09 GMT 50.910366 4.795837 8,475 183 286 3840
2020-08-07 12:34:06 GMT 50.913345 4.795978 8,300 177 286 3968
2020-08-07 12:34:03 GMT 50.918232 4.795456 8,125 159 288 3712
2020-08-07 12:34:00 GMT 50.922142 4.794388 7,850 165 288 3968
2020-08-07 12:33:57 GMT 50.926712 4.792340 7,625 159 288 3712
2020-08-07 12:33:53 GMT 50.931885 4.788926 7,400 148 286 3136
2020-08-07 12:33:50 GMT 50.938339 4.782467 7,200 146 286 2944
2020-08-07 12:33:47 GMT 50.938339 4.782467 7,125 138 284 2816
2020-08-07 12:33:44 GMT 50.940437 4.779663 7,025 134 283 2880
2020-08-07 12:33:41 GMT 50.942871 4.775787 6,925 130 282 2880
2020-08-07 12:33:38 GMT 50.945744 4.770279 6,750 125 280 3072
2020-08-07 12:33:35 GMT 50.948822 4.762796 6,325 115 278 3520
2020-08-07 12:33:31 GMT 50.950634 4.757004 6,375 113 278 3520
2020-08-07 12:33:28 GMT 50.951984 4.751358 6,175 99 277 3072
2020-08-07 12:33:24 GMT 50.953007 4.744797 6,050 99 277 3072
2020-08-07 12:33:21 GMT 50.953751 4.735947 5,775 90 274 2816
2020-08-07 12:33:18 GMT 50.953751 4.733047 5,725 87 272 3136
2020-08-07 12:33:15 GMT 50.953568 4.724731 5,525 81 269 3200
2020-08-07 12:33:12 GMT 50.953125 4.719741 5,400 79 268 3584
2020-08-07 12:33:09 GMT 50.952496 4.714432 5,175 79 267 3456
2020-08-07 12:33:06 GMT 50.951660 4.707493 5,050 79 267 3136
2020-08-07 12:33:02 GMT 50.950745 4.699476 4,850 79 266 2432
2020-08-07 12:32:59 GMT 50.950012 4.693092 4,650 79 262 2112
2020-08-07 12:32:54 GMT 50.949005 4.684852 4,575 78 258 2048
2020-08-07 12:32:50 GMT 50.947281 4.672928 4,425 76 252 2048
2020-08-07 12:32:41 GMT 50.945187 4.661713 4,175 67 239 1152
2020-08-07 12:32:37 GMT 50.943512 4.655085 4,000 64 233 1408
2020-08-07 12:32:32 GMT 50.941647 4.648895 4,000 61 223 1536
2020-08-07 12:32:29 GMT 50.940216 4.644693 3,875 61 220 1216
2020-08-07 12:32:26 GMT 50.938751 4.640387 3,900 61 220 1216
2020-08-07 12:32:23 GMT 50.936096 4.632742 3,825 61 209 320
2020-08-07 12:32:20 GMT 50.933990 4.626729 3,775 61 198 1344
2020-08-07 12:32:16 GMT 50.931107 4.618341 3,450 60 184 1024
2020-08-07 12:32:10 GMT 50.931107 4.618341 3,600 60 187 960
2020-08-07 12:32:07 GMT 50.929779 4.614629 3,450 60 184 1024
2020-08-07 12:31:59 GMT 50.926704 4.605942 3,450 61 175 640
2020-08-07 12:31:56 GMT 50.925339 4.601935 3,425 61 173 704
2020-08-07 12:31:52 GMT 50.923401 4.596405 3,300 61 166 768
2020-08-07 12:31:49 GMT 50.922684 4.594364 3,325 61 161 704
2020-08-07 12:31:46 GMT 50.921352 4.590454 3,300 61 156 1344
2020-08-07 12:31:39 GMT 50.919159 4.584120 2,425 62 151 2560
2020-08-07 12:31:36 GMT 50.918186 4.581223 2,975 61 150 2368
2020-08-07 12:31:29 GMT 50.914673 4.571129 2,575 61 149 2752
2020-08-07 12:31:19 GMT 50.912430 4.564745 2,275 61 151 3200
2020-08-07 12:31:15 GMT 50.911285 4.561479 2,100 61 152 3264
2020-08-07 12:31:10 GMT 50.909454 4.556134 1,775 62 156 2624
2020-08-07 12:31:07 GMT 50.908596 4.553604 1,725 62 156 2624
2020-08-07 12:31:00 GMT 50.905838 4.545593 1,375 61 154 2496
2020-08-07 12:30:57 GMT 50.903915 4.540026 1,200 65 152 2560
2020-08-07 12:30:48 GMT 50.902031 4.534225 875 65 152 2560
2020-08-07 12:30:45 GMT 50.901123 4.531266 775 67 151 2880
2020-08-07 12:30:38 GMT 50.899155 4.523546 375 70 120 960
2020-08-07 12:30:28 GMT 50.896683 4.513377 100 70 120 960
2020-08-07 12:30:17 GMT 50.894108 4.502353 0 70 120
2020-08-07 12:30:07 GMT 50.892490 4.495277 0 70 76
2020-08-07 12:29:31 GMT 50.891361 4.490528 0 106 9
2020-08-07 12:29:21 GMT 50.891693 4.490253 0 196 15
2020-08-07 12:29:10 GMT 50.892666 4.490662 0 194 21
2020-08-07 12:28:54 GMT 50.894257 4.491310 0 194 24
2020-08-07 12:28:51 GMT 50.894474 4.491385 0 196 24
2020-08-07 12:28:41 GMT 50.895618 4.491924 0 208 24
2020-08-07 12:28:31 GMT 50.896557 4.492647 0 194 23
2020-08-07 12:28:15 GMT 50.898193 4.493313 0 194 23
2020-08-07 12:28:08 GMT 50.898880 4.493464 0 171 23
2020-08-07 12:28:01 GMT 50.899715 4.493297 0 174 23
2020-08-07 12:27:56 GMT 50.900059 4.493241 0 177 23
2020-08-07 12:27:49 GMT 50.900757 4.493241 0 188 21
2020-08-07 12:27:44 GMT 50.901287 4.493408 0 194 19
2020-08-07 12:27:40 GMT 50.901592 4.493538 0 194 17
2020-08-07 12:27:29 GMT 50.902325 4.493828 0 194 14
2020-08-07 12:27:17 GMT 50.903114 4.494021 0 149 15
2020-08-07 12:27:10 GMT 50.903778 4.493297 0 154 12
2020-08-07 12:26:59 GMT 50.903996 4.493111 0 160 12
2020-08-07 12:26:56 GMT 50.904186 4.493027 0 154 12
2020-08-07 12:26:46 GMT 50.904785 4.492610 0 154 15
2020-08-07 12:26:36 GMT 50.905334 4.492146 0 160 13
2020-08-07 12:26:29 GMT 50.905930 4.491757 0 154 12
2020-08-07 12:26:16 GMT 50.906273 4.491515 0 137 13
2020-08-07 12:26:06 GMT 50.906433 4.490719 0 70 13
2020-08-07 12:25:57 GMT 50.906223 4.489918 0 64 15
2020-08-07 12:25:47 GMT 50.905952 4.489021 0 67 14
2020-08-07 12:25:38 GMT 50.905724 4.488182 0 67 10
2020-08-07 12:25:27 GMT 50.905571 4.487667 0 64 6
2020-08-07 12:25:16 GMT 50.905483 4.487377 0 61 2
2020-08-07 12:25:03 GMT 50.905476 4.487343 0 61 0
2020-08-07 12:24:43 GMT 50.905472 4.487340 0 61 0
2020-08-07 12:24:33 GMT 50.905476 4.487343 0 61 0
2020-08-07 12:24:03 GMT 50.905472 4.487340 0 61 0
2020-08-07 12:23:43 GMT 50.905476 4.487343 0 61 0
2020-08-07 12:23:33 GMT 50.905472 4.487340 0 61 0
2020-08-07 12:23:23 GMT 50.905476 4.487343 0 61 0
2020-08-07 12:23:03 GMT 50.905472 4.487340 0 61 0
2020-08-07 12:22:43 GMT 50.905476 4.487324 0 61 0
2020-08-07 12:22:34 GMT 50.905514 4.487553 0 73 6
2020-08-07 12:22:23 GMT 50.905373 4.487915 0 123 7
2020-08-07 12:22:13 GMT 50.905140 4.488175 0 143 6
2020-08-07 12:22:03 GMT 50.904922 4.488360 0 151 6
2020-08-07 12:21:51 GMT 50.904751 4.488490 0 154 0
2020-08-07 12:21:26 GMT 50.904766 4.488487 0 154 0
2020-08-07 12:21:21 GMT 50.904774 4.488472 0 154 0
2020-08-07 12:20:51 GMT 50.904762 4.488472 0 154 0
2020-08-07 12:20:41 GMT 50.904755 4.488487 0 154 0

Making use of Plane Finder data

You are free to use the raw flight data, aircraft information and images provided in this report for your own purposes provided the data is correctly attributed to Plane Finder. We ask that you please credit Plane Finder and link to planefinder.net in close proximity to the content.

Optionally one of the following logos (no smaller then 150x24px) can be used and must link to planefinder.net

Embedding the Plane Finder map

You are welcome to embed the Plane Finder playback map on your website to offer visitors a more interactive experience. We suggest using the following HTML code:

<iframe src="//planefinder.net/data/report/SN3735-OO-SNM-7700-squawk-2020-08-07/map" width="800" height="600" seamless="seamless"></iframe>

Where our data comes from

Plane Finder has a global network of data feeds and antenna radars that receive data broadcast directly from aircraft. The primary technologies used are ADS-B and MLAT. We also show feeds from the FAA and a FLARM glider feed.

Click here to find out more about the Plane Finder network.

How we collect our data